DTA655 LPPR-FNLU
Flight info
| Callsign | DTA655 |
|---|---|
| Flight time | 7h 4m |
| Altitude | 37000 |
| Route | MANIK DCT FTM DCT AMSEL UR722 SAK UW900 OZT UJ744 BAGBO UM629 AROGA/N0482F390 UM629 KELEX/N0481F400 UA608 TYE/N0483F390 UZ136 KINBU DCT GAPAK UA400 DEPOG/N0480F410 UA400 VNA |
| Aircraft | B772/H-SDE2E3FGHIJ5LORVWXY/LB1D1 |
Departure
| Time | 2026-04-22 01:09 |
|---|---|
| Airport | Francisco de Sá Carneiro Airport (LPPR) |
Arrival
| Time | 2026-04-22 08:13 |
|---|---|
| Airport | Quatro de Fevereiro International Airport (FNLU) |
| Time | Latitude | Longitude | Altitude | Speed | Heading |
|---|---|---|---|---|---|
| 2026-04-21 22:50 | 41.23438 | -8.67269 | 0 ft | 0 kts | 59° |
| 2026-04-22 00:59 | 41.23426 | -8.67294 | 239 ft | 4 kts | 58° |
| 2026-04-22 01:00 | 41.23414 | -8.67324 | 239 ft | 4 kts | 78° |
| 2026-04-22 01:00 | 41.23415 | -8.67351 | 239 ft | 4 kts | 110° |
| 2026-04-22 01:00 | 41.23426 | -8.67379 | 239 ft | 4 kts | 140° |
| 2026-04-22 01:00 | 41.23445 | -8.67391 | 239 ft | 4 kts | 181° |
| 2026-04-22 01:01 | 41.23471 | -8.67387 | 239 ft | 4 kts | 185° |
| 2026-04-22 01:01 | 41.23488 | -8.67387 | 239 ft | 0 kts | 168° |
| 2026-04-22 01:06 | 41.23479 | -8.67384 | 239 ft | 5 kts | 168° |
| 2026-04-22 01:06 | 41.23434 | -8.67372 | 239 ft | 7 kts | 168° |
| 2026-04-22 01:06 | 41.23388 | -8.67360 | 239 ft | 7 kts | 168° |
| 2026-04-22 01:07 | 41.23347 | -8.67379 | 239 ft | 7 kts | 232° |
| 2026-04-22 01:07 | 41.23331 | -8.67438 | 239 ft | 7 kts | 260° |
| 2026-04-22 01:07 | 41.23323 | -8.67499 | 239 ft | 7 kts | 260° |
| 2026-04-22 01:07 | 41.23315 | -8.67561 | 239 ft | 7 kts | 260° |
| 2026-04-22 01:08 | 41.23307 | -8.67623 | 240 ft | 7 kts | 260° |
| 2026-04-22 01:08 | 41.23298 | -8.67684 | 240 ft | 7 kts | 260° |
| 2026-04-22 01:08 | 41.23325 | -8.67731 | 240 ft | 7 kts | 334° |
| 2026-04-22 01:08 | 41.23372 | -8.67746 | 241 ft | 8 kts | 347° |
| 2026-04-22 01:09 | 41.23568 | -8.67798 | 240 ft | 60 kts | 348° |
| 2026-04-22 01:09 | 41.24230 | -8.67971 | 240 ft | 131 kts | 348° |
| 2026-04-22 01:09 | 41.25295 | -8.68262 | 428 ft | 167 kts | 346° |
| 2026-04-22 01:09 | 41.26424 | -8.68561 | 1170 ft | 170 kts | 348° |
| 2026-04-22 01:10 | 41.27587 | -8.68863 | 1919 ft | 169 kts | 348° |
| 2026-04-22 01:10 | 41.28764 | -8.69166 | 2598 ft | 175 kts | 347° |
| 2026-04-22 01:10 | 41.29984 | -8.69485 | 3257 ft | 183 kts | 346° |
| 2026-04-22 01:10 | 41.31332 | -8.69845 | 3558 ft | 214 kts | 346° |
| 2026-04-22 01:11 | 41.32881 | -8.70262 | 3826 ft | 241 kts | 346° |
| 2026-04-22 01:11 | 41.34593 | -8.70723 | 4294 ft | 260 kts | 346° |
| 2026-04-22 01:11 | 41.36440 | -8.71223 | 4766 ft | 278 kts | 346° |
| 2026-04-22 01:11 | 41.38369 | -8.71748 | 5489 ft | 284 kts | 344° |
| 2026-04-22 01:12 | 41.40154 | -8.72769 | 6101 ft | 284 kts | 316° |
| 2026-04-22 01:12 | 41.41326 | -8.74791 | 6903 ft | 272 kts | 284° |
| 2026-04-22 01:12 | 41.41600 | -8.77222 | 7727 ft | 263 kts | 264° |
| 2026-04-22 01:12 | 41.41449 | -8.79656 | 8538 ft | 264 kts | 256° |
| 2026-04-22 01:13 | 41.40905 | -8.81951 | 9222 ft | 261 kts | 234° |
| 2026-04-22 01:13 | 41.39652 | -8.83650 | 9824 ft | 259 kts | 212° |
| 2026-04-22 01:13 | 41.37971 | -8.84588 | 10253 ft | 273 kts | 196° |
| 2026-04-22 01:13 | 41.35993 | -8.84766 | 10421 ft | 302 kts | 176° |
| 2026-04-22 01:14 | 41.33834 | -8.84242 | 10615 ft | 328 kts | 172° |
| 2026-04-22 01:14 | 41.31548 | -8.83591 | 10802 ft | 353 kts | 171° |
| 2026-04-22 01:14 | 41.29096 | -8.82880 | 11334 ft | 366 kts | 171° |
| 2026-04-22 01:14 | 41.26578 | -8.82162 | 12011 ft | 373 kts | 172° |
| 2026-04-22 01:15 | 41.24016 | -8.81450 | 12750 ft | 379 kts | 172° |
| 2026-04-22 01:15 | 41.21420 | -8.80744 | 13498 ft | 383 kts | 173° |
| 2026-04-22 01:15 | 41.18782 | -8.80038 | 14163 ft | 388 kts | 173° |
| 2026-04-22 01:15 | 41.16112 | -8.79330 | 14830 ft | 392 kts | 173° |
| 2026-04-22 01:16 | 41.13460 | -8.78629 | 15489 ft | 396 kts | 173° |
| 2026-04-22 01:16 | 41.10746 | -8.77912 | 16129 ft | 399 kts | 173° |
| 2026-04-22 01:16 | 41.08015 | -8.77193 | 16755 ft | 402 kts | 173° |
| 2026-04-22 01:16 | 41.05255 | -8.76449 | 17355 ft | 407 kts | 172° |
| 2026-04-22 01:17 | 41.02498 | -8.75466 | 17906 ft | 414 kts | 168° |
| 2026-04-22 01:17 | 40.99735 | -8.74302 | 18429 ft | 418 kts | 167° |
| 2026-04-22 01:17 | 40.96953 | -8.73086 | 18928 ft | 421 kts | 167° |
| 2026-04-22 01:17 | 40.94152 | -8.71871 | 19367 ft | 426 kts | 167° |
| 2026-04-22 01:18 | 40.91313 | -8.70667 | 19807 ft | 430 kts | 167° |
| 2026-04-22 01:18 | 40.88485 | -8.69488 | 20255 ft | 433 kts | 167° |
| 2026-04-22 01:18 | 40.85597 | -8.68300 | 20697 ft | 437 kts | 167° |
| 2026-04-22 01:18 | 40.82680 | -8.67106 | 21122 ft | 441 kts | 167° |
| 2026-04-22 01:19 | 40.79736 | -8.65903 | 21527 ft | 444 kts | 167° |
| 2026-04-22 01:19 | 40.76759 | -8.64688 | 21904 ft | 449 kts | 167° |
| 2026-04-22 01:19 | 40.73761 | -8.63463 | 22301 ft | 453 kts | 167° |
| 2026-04-22 01:19 | 40.70737 | -8.62230 | 22715 ft | 456 kts | 167° |
| 2026-04-22 01:20 | 40.67677 | -8.61165 | 23040 ft | 454 kts | 174° |
| 2026-04-22 01:20 | 40.64540 | -8.60663 | 23304 ft | 456 kts | 179° |
| 2026-04-22 01:20 | 40.61362 | -8.60352 | 23625 ft | 459 kts | 180° |
| 2026-04-22 01:20 | 40.58168 | -8.60077 | 23956 ft | 461 kts | 180° |
| 2026-04-22 01:21 | 40.54956 | -8.59782 | 24292 ft | 464 kts | 179° |
| 2026-04-22 01:21 | 40.51768 | -8.59457 | 24609 ft | 467 kts | 179° |
| 2026-04-22 01:21 | 40.48517 | -8.59097 | 24888 ft | 470 kts | 179° |
| 2026-04-22 01:21 | 40.45251 | -8.58714 | 25174 ft | 473 kts | 179° |
| 2026-04-22 01:22 | 40.41956 | -8.58317 | 25465 ft | 476 kts | 178° |
| 2026-04-22 01:22 | 40.38648 | -8.57914 | 25698 ft | 479 kts | 178° |
| 2026-04-22 01:22 | 40.35316 | -8.57508 | 25943 ft | 481 kts | 178° |
| 2026-04-22 01:22 | 40.31977 | -8.57102 | 26193 ft | 483 kts | 178° |
| 2026-04-22 01:23 | 40.28619 | -8.56695 | 26415 ft | 485 kts | 178° |
| 2026-04-22 01:23 | 40.25239 | -8.56288 | 26603 ft | 488 kts | 178° |
| 2026-04-22 01:23 | 40.21848 | -8.55880 | 26815 ft | 490 kts | 178° |
| 2026-04-22 01:23 | 40.18488 | -8.55477 | 27036 ft | 491 kts | 178° |
| 2026-04-22 01:24 | 40.15089 | -8.55069 | 27361 ft | 490 kts | 178° |
| 2026-04-22 01:24 | 40.11693 | -8.54662 | 27702 ft | 489 kts | 178° |
| 2026-04-22 01:24 | 40.08308 | -8.54256 | 28033 ft | 489 kts | 178° |
| 2026-04-22 01:24 | 40.04915 | -8.53850 | 28348 ft | 489 kts | 179° |
| 2026-04-22 01:25 | 40.01528 | -8.53446 | 28688 ft | 488 kts | 179° |
| 2026-04-22 01:25 | 39.98147 | -8.53043 | 29034 ft | 488 kts | 179° |
| 2026-04-22 01:25 | 39.94765 | -8.52640 | 29383 ft | 487 kts | 179° |
| 2026-04-22 01:25 | 39.91433 | -8.52243 | 29715 ft | 487 kts | 179° |
| 2026-04-22 01:26 | 39.88065 | -8.51843 | 30053 ft | 486 kts | 179° |
| 2026-04-22 01:26 | 39.84699 | -8.51442 | 30375 ft | 485 kts | 179° |
| 2026-04-22 01:26 | 39.81327 | -8.51043 | 30698 ft | 484 kts | 179° |
| 2026-04-22 01:26 | 39.77968 | -8.50645 | 31037 ft | 483 kts | 179° |
| 2026-04-22 01:27 | 39.74623 | -8.50249 | 31358 ft | 482 kts | 179° |
| 2026-04-22 01:27 | 39.71282 | -8.49853 | 31669 ft | 482 kts | 179° |
| 2026-04-22 01:27 | 39.67940 | -8.49458 | 32004 ft | 481 kts | 179° |
| 2026-04-22 01:27 | 39.64653 | -8.49048 | 32319 ft | 481 kts | 178° |
| 2026-04-22 01:28 | 39.61333 | -8.48523 | 32658 ft | 480 kts | 177° |
| 2026-04-22 01:28 | 39.57979 | -8.47928 | 32995 ft | 480 kts | 176° |
| 2026-04-22 01:28 | 39.54720 | -8.47327 | 33286 ft | 480 kts | 176° |
| 2026-04-22 01:28 | 39.51408 | -8.46717 | 33590 ft | 479 kts | 176° |
| 2026-04-22 01:29 | 39.48105 | -8.46119 | 33898 ft | 479 kts | 176° |
| 2026-04-22 01:29 | 39.44808 | -8.45534 | 34167 ft | 478 kts | 177° |
| 2026-04-22 01:29 | 39.41505 | -8.44957 | 34426 ft | 478 kts | 177° |
| 2026-04-22 01:29 | 39.38214 | -8.44388 | 34705 ft | 477 kts | 177° |
| 2026-04-22 01:30 | 39.34924 | -8.43823 | 34966 ft | 476 kts | 177° |
| 2026-04-22 01:30 | 39.31637 | -8.43260 | 35234 ft | 476 kts | 177° |
| 2026-04-22 01:30 | 39.28356 | -8.42698 | 35497 ft | 475 kts | 177° |
| 2026-04-22 01:30 | 39.25071 | -8.42135 | 35767 ft | 475 kts | 177° |
| 2026-04-22 01:31 | 39.21799 | -8.41575 | 36010 ft | 474 kts | 177° |
| 2026-04-22 01:31 | 39.18527 | -8.41015 | 36248 ft | 474 kts | 177° |
| 2026-04-22 01:31 | 39.15253 | -8.40455 | 36481 ft | 474 kts | 177° |
| 2026-04-22 01:31 | 39.11988 | -8.39897 | 36730 ft | 473 kts | 177° |
| 2026-04-22 01:32 | 39.08763 | -8.39346 | 36877 ft | 475 kts | 177° |
| 2026-04-22 01:32 | 39.05478 | -8.38787 | 36916 ft | 477 kts | 177° |
| 2026-04-22 01:32 | 38.98870 | -8.37662 | 36940 ft | 478 kts | 177° |
| 2026-04-22 01:33 | 38.92306 | -8.36542 | 36939 ft | 473 kts | 177° |
| 2026-04-22 01:33 | 38.85789 | -8.35434 | 36953 ft | 471 kts | 177° |
| 2026-04-22 01:34 | 38.79338 | -8.34343 | 36949 ft | 471 kts | 177° |
| 2026-04-22 01:34 | 38.72838 | -8.33245 | 36957 ft | 471 kts | 177° |
| 2026-04-22 01:35 | 38.66321 | -8.32146 | 36952 ft | 473 kts | 177° |
| 2026-04-22 01:35 | 38.59794 | -8.31046 | 36958 ft | 474 kts | 177° |
| 2026-04-22 01:36 | 38.53253 | -8.29946 | 36955 ft | 475 kts | 177° |
| 2026-04-22 01:36 | 38.46675 | -8.28842 | 36954 ft | 476 kts | 177° |
| 2026-04-22 01:37 | 38.40091 | -8.27739 | 36961 ft | 477 kts | 177° |
| 2026-04-22 01:37 | 38.33534 | -8.26640 | 36958 ft | 478 kts | 177° |
| 2026-04-22 01:38 | 38.26927 | -8.25537 | 36953 ft | 478 kts | 177° |
| 2026-04-22 01:38 | 38.20316 | -8.24435 | 36961 ft | 479 kts | 177° |
| 2026-04-22 01:39 | 38.13708 | -8.23336 | 36965 ft | 479 kts | 177° |
| 2026-04-22 01:39 | 38.07142 | -8.22246 | 36961 ft | 479 kts | 177° |
| 2026-04-22 01:40 | 38.00530 | -8.21150 | 36964 ft | 479 kts | 177° |
| 2026-04-22 01:40 | 37.93920 | -8.20056 | 36957 ft | 479 kts | 177° |
| 2026-04-22 01:41 | 37.87311 | -8.18965 | 36963 ft | 479 kts | 177° |
| 2026-04-22 01:41 | 37.80698 | -8.17874 | 36962 ft | 479 kts | 177° |
| 2026-04-22 01:42 | 37.74087 | -8.16786 | 36964 ft | 479 kts | 177° |
| 2026-04-22 01:42 | 37.67509 | -8.15706 | 36957 ft | 479 kts | 177° |
| 2026-04-22 01:43 | 37.60897 | -8.14622 | 36962 ft | 479 kts | 177° |
| 2026-04-22 01:43 | 37.54276 | -8.13538 | 36961 ft | 479 kts | 177° |
| 2026-04-22 01:44 | 37.47650 | -8.12456 | 36961 ft | 480 kts | 177° |
| 2026-04-22 01:44 | 37.41020 | -8.11374 | 36960 ft | 480 kts | 177° |
| 2026-04-22 01:45 | 37.34399 | -8.10297 | 36956 ft | 480 kts | 177° |
| 2026-04-22 01:45 | 37.27858 | -8.09234 | 36956 ft | 480 kts | 177° |
| 2026-04-22 01:46 | 37.21264 | -8.08164 | 36945 ft | 480 kts | 177° |
| 2026-04-22 01:46 | 37.14625 | -8.07089 | 36941 ft | 480 kts | 177° |
| 2026-04-22 01:47 | 37.07994 | -8.06017 | 36941 ft | 480 kts | 177° |
| 2026-04-22 01:47 | 37.01358 | -8.04946 | 36931 ft | 480 kts | 177° |
| 2026-04-22 01:48 | 36.94717 | -8.03876 | 36936 ft | 480 kts | 177° |
| 2026-04-22 01:48 | 36.88130 | -8.02817 | 36943 ft | 480 kts | 177° |
| 2026-04-22 01:49 | 36.81489 | -8.01751 | 36941 ft | 480 kts | 177° |
| 2026-04-22 01:49 | 36.74848 | -8.00687 | 36949 ft | 481 kts | 177° |
| 2026-04-22 01:50 | 36.68204 | -7.99624 | 36962 ft | 481 kts | 177° |
| 2026-04-22 01:50 | 36.61568 | -7.98565 | 36961 ft | 481 kts | 177° |
| 2026-04-22 01:51 | 36.54967 | -7.97512 | 36957 ft | 481 kts | 177° |
| 2026-04-22 01:51 | 36.48316 | -7.96454 | 36950 ft | 481 kts | 177° |
| 2026-04-22 01:52 | 36.41668 | -7.95398 | 36964 ft | 481 kts | 177° |
| 2026-04-22 01:52 | 36.35021 | -7.94343 | 36962 ft | 482 kts | 177° |
| 2026-04-22 01:53 | 36.28363 | -7.93289 | 36956 ft | 482 kts | 177° |
| 2026-04-22 01:53 | 36.21710 | -7.92238 | 36958 ft | 482 kts | 177° |
| 2026-04-22 01:54 | 36.15098 | -7.91194 | 36957 ft | 482 kts | 177° |
| 2026-04-22 01:54 | 36.08444 | -7.90146 | 36959 ft | 482 kts | 177° |
| 2026-04-22 01:55 | 36.01781 | -7.89098 | 36959 ft | 482 kts | 177° |
| 2026-04-22 01:55 | 35.95116 | -7.88113 | 36959 ft | 481 kts | 179° |
| 2026-04-22 01:56 | 35.88438 | -7.87492 | 36958 ft | 480 kts | 180° |
| 2026-04-22 01:56 | 35.82888 | -7.87025 | 36959 ft | 481 kts | 180° |
| 2026-04-22 01:57 | 35.76206 | -7.86442 | 36960 ft | 482 kts | 180° |
| 2026-04-22 01:57 | 35.68434 | -7.85740 | 36963 ft | 482 kts | 180° |
| 2026-04-22 01:58 | 35.62819 | -7.85230 | 36964 ft | 483 kts | 180° |
| 2026-04-22 01:58 | 35.56156 | -7.84628 | 36960 ft | 483 kts | 180° |
| 2026-04-22 01:59 | 35.49435 | -7.84023 | 36963 ft | 484 kts | 180° |
| 2026-04-22 01:59 | 35.42707 | -7.83418 | 36963 ft | 484 kts | 180° |
| 2026-04-22 02:00 | 35.35975 | -7.82833 | 36966 ft | 485 kts | 180° |
| 2026-04-22 02:00 | 35.29228 | -7.82274 | 36961 ft | 485 kts | 180° |
| 2026-04-22 02:01 | 35.22520 | -7.81718 | 36964 ft | 486 kts | 180° |
| 2026-04-22 02:01 | 35.15754 | -7.81154 | 36971 ft | 486 kts | 180° |
| 2026-04-22 02:02 | 35.08986 | -7.80589 | 36965 ft | 487 kts | 180° |
| 2026-04-22 02:02 | 35.02257 | -7.80028 | 36969 ft | 488 kts | 180° |
| 2026-04-22 02:03 | 34.95480 | -7.79464 | 36968 ft | 488 kts | 180° |
| 2026-04-22 02:03 | 34.88696 | -7.78901 | 36965 ft | 489 kts | 180° |
| 2026-04-22 02:04 | 34.78507 | -7.78057 | 36968 ft | 489 kts | 180° |
| 2026-04-22 02:05 | 34.71704 | -7.77504 | 36966 ft | 489 kts | 181° |
| 2026-04-22 02:05 | 34.64942 | -7.77027 | 36964 ft | 490 kts | 181° |
| 2026-04-22 02:06 | 34.58136 | -7.76563 | 36966 ft | 490 kts | 181° |
| 2026-04-22 02:06 | 34.51312 | -7.76088 | 36968 ft | 491 kts | 181° |
| 2026-04-22 02:07 | 34.44481 | -7.75607 | 36969 ft | 491 kts | 181° |
| 2026-04-22 02:07 | 34.37647 | -7.75127 | 36965 ft | 492 kts | 181° |
| 2026-04-22 02:08 | 34.30804 | -7.74647 | 36967 ft | 492 kts | 181° |
| 2026-04-22 02:08 | 34.23955 | -7.74167 | 36977 ft | 493 kts | 181° |
| 2026-04-22 02:09 | 34.17144 | -7.73684 | 36975 ft | 494 kts | 180° |
| 2026-04-22 02:09 | 34.10279 | -7.73067 | 36975 ft | 495 kts | 179° |
| 2026-04-22 02:10 | 34.03403 | -7.72404 | 36971 ft | 495 kts | 179° |
| 2026-04-22 02:10 | 33.96535 | -7.71759 | 36965 ft | 495 kts | 179° |
| 2026-04-22 02:11 | 33.89655 | -7.71127 | 36971 ft | 495 kts | 179° |
| 2026-04-22 02:11 | 33.82816 | -7.70502 | 36964 ft | 496 kts | 179° |
| 2026-04-22 02:12 | 33.75936 | -7.69873 | 36967 ft | 496 kts | 179° |
| 2026-04-22 02:12 | 33.69044 | -7.69244 | 36964 ft | 496 kts | 179° |
| 2026-04-22 02:13 | 33.62154 | -7.68615 | 36965 ft | 497 kts | 179° |
| 2026-04-22 02:13 | 33.55253 | -7.67961 | 36971 ft | 498 kts | 176° |
| 2026-04-22 02:14 | 33.48438 | -7.66269 | 36959 ft | 504 kts | 165° |
| 2026-04-22 02:14 | 33.41827 | -7.63441 | 36968 ft | 505 kts | 162° |
| 2026-04-22 02:15 | 33.35218 | -7.60565 | 36967 ft | 505 kts | 163° |
| 2026-04-22 02:15 | 33.28601 | -7.57753 | 36968 ft | 505 kts | 163° |
| 2026-04-22 02:16 | 33.21970 | -7.54963 | 36964 ft | 505 kts | 163° |
| 2026-04-22 02:16 | 33.15342 | -7.52175 | 36973 ft | 505 kts | 163° |
| 2026-04-22 02:17 | 33.08700 | -7.49681 | 36972 ft | 502 kts | 169° |
| 2026-04-22 02:17 | 33.01883 | -7.47830 | 36979 ft | 502 kts | 170° |
| 2026-04-22 02:18 | 32.95059 | -7.45969 | 36981 ft | 503 kts | 169° |
| 2026-04-22 02:18 | 32.88245 | -7.44059 | 36997 ft | 503 kts | 169° |
| 2026-04-22 02:19 | 32.81431 | -7.42126 | 36983 ft | 503 kts | 169° |
| 2026-04-22 02:19 | 32.74630 | -7.40186 | 36987 ft | 503 kts | 169° |
| 2026-04-22 02:20 | 32.67853 | -7.38260 | 36982 ft | 503 kts | 169° |
| 2026-04-22 02:20 | 32.61041 | -7.36330 | 36987 ft | 503 kts | 169° |
| 2026-04-22 02:21 | 32.54222 | -7.34432 | 36992 ft | 503 kts | 169° |
| 2026-04-22 02:21 | 32.47402 | -7.32547 | 36984 ft | 503 kts | 169° |
| 2026-04-22 02:22 | 32.40574 | -7.30658 | 36993 ft | 503 kts | 169° |
| 2026-04-22 02:22 | 32.33747 | -7.28768 | 36995 ft | 504 kts | 169° |
| 2026-04-22 02:23 | 32.26962 | -7.26894 | 36994 ft | 504 kts | 169° |
| 2026-04-22 02:23 | 32.20126 | -7.24989 | 37001 ft | 504 kts | 168° |
| 2026-04-22 02:24 | 32.13301 | -7.23068 | 37004 ft | 505 kts | 168° |
| 2026-04-22 02:24 | 32.06456 | -7.21147 | 37008 ft | 505 kts | 168° |
| 2026-04-22 02:25 | 31.99608 | -7.19236 | 37015 ft | 506 kts | 168° |
| 2026-04-22 02:25 | 31.92788 | -7.17363 | 37011 ft | 506 kts | 169° |
| 2026-04-22 02:26 | 31.85914 | -7.15485 | 37010 ft | 507 kts | 168° |
| 2026-04-22 02:26 | 31.79021 | -7.13600 | 37016 ft | 507 kts | 168° |
| 2026-04-22 02:27 | 31.72143 | -7.11719 | 37020 ft | 508 kts | 168° |
| 2026-04-22 02:27 | 31.65247 | -7.09836 | 37020 ft | 509 kts | 168° |
| 2026-04-22 02:28 | 31.58390 | -7.07966 | 37027 ft | 509 kts | 168° |
| 2026-04-22 02:28 | 31.51483 | -7.06085 | 37027 ft | 509 kts | 168° |
| 2026-04-22 02:29 | 31.44578 | -7.04209 | 37041 ft | 510 kts | 168° |
| 2026-04-22 02:29 | 31.37657 | -7.02329 | 37036 ft | 510 kts | 168° |
| 2026-04-22 02:30 | 31.30746 | -7.00455 | 37038 ft | 509 kts | 168° |
| 2026-04-22 02:30 | 31.23886 | -6.98592 | 37038 ft | 509 kts | 168° |
| 2026-04-22 02:31 | 31.16983 | -6.96717 | 37039 ft | 508 kts | 168° |
| 2026-04-22 02:31 | 31.10090 | -6.94849 | 37025 ft | 509 kts | 168° |
| 2026-04-22 02:32 | 31.03174 | -6.92978 | 37024 ft | 509 kts | 168° |
| 2026-04-22 02:32 | 30.96418 | -6.90598 | 37016 ft | 509 kts | 151° |
| 2026-04-22 02:32 | 30.93531 | -6.88225 | 37032 ft | 509 kts | 137° |
| 2026-04-22 02:33 | 30.91177 | -6.85165 | 37018 ft | 507 kts | 122° |
| 2026-04-22 02:33 | 30.87740 | -6.78048 | 37029 ft | 506 kts | 117° |
| 2026-04-22 02:34 | 30.84326 | -6.70856 | 37031 ft | 509 kts | 118° |
| 2026-04-22 02:34 | 30.80847 | -6.63718 | 37031 ft | 511 kts | 118° |
| 2026-04-22 02:35 | 30.77297 | -6.56531 | 37027 ft | 512 kts | 118° |
| 2026-04-22 02:35 | 30.73742 | -6.49356 | 37028 ft | 512 kts | 119° |
| 2026-04-22 02:36 | 30.70187 | -6.42185 | 37016 ft | 511 kts | 119° |
| 2026-04-22 02:36 | 30.66645 | -6.35045 | 37016 ft | 509 kts | 119° |
| 2026-04-22 02:37 | 30.63127 | -6.27967 | 37010 ft | 508 kts | 120° |
| 2026-04-22 02:37 | 30.59597 | -6.20878 | 37005 ft | 506 kts | 120° |
| 2026-04-22 02:38 | 30.56073 | -6.13814 | 36997 ft | 505 kts | 120° |
| 2026-04-22 02:38 | 30.52548 | -6.06762 | 36982 ft | 504 kts | 120° |
| 2026-04-22 02:39 | 30.49030 | -5.99736 | 36973 ft | 504 kts | 120° |
| 2026-04-22 02:39 | 30.45527 | -5.92752 | 36970 ft | 504 kts | 121° |
| 2026-04-22 02:40 | 30.42004 | -5.85740 | 36967 ft | 504 kts | 121° |
| 2026-04-22 02:40 | 30.38474 | -5.78726 | 36967 ft | 504 kts | 121° |
| 2026-04-22 02:41 | 30.34941 | -5.71717 | 36969 ft | 504 kts | 121° |
| 2026-04-22 02:41 | 30.32975 | -5.68377 | 36961 ft | 501 kts | 132° |
| 2026-04-22 02:41 | 30.30523 | -5.65545 | 36965 ft | 497 kts | 143° |
| 2026-04-22 02:42 | 30.24678 | -5.61444 | 36968 ft | 489 kts | 159° |
| 2026-04-22 02:42 | 30.18423 | -5.58316 | 36954 ft | 490 kts | 160° |
| 2026-04-22 02:43 | 30.12148 | -5.55182 | 36955 ft | 492 kts | 159° |
| 2026-04-22 02:43 | 30.06940 | -5.52531 | 36943 ft | 492 kts | 159° |
| 2026-04-22 02:44 | 29.99658 | -5.48785 | 36949 ft | 493 kts | 159° |
| 2026-04-22 02:44 | 29.93387 | -5.45556 | 36931 ft | 493 kts | 159° |
| 2026-04-22 02:45 | 29.88182 | -5.42881 | 36933 ft | 492 kts | 159° |
| 2026-04-22 02:45 | 29.81922 | -5.39672 | 36931 ft | 491 kts | 159° |
| 2026-04-22 02:46 | 29.75676 | -5.36474 | 36926 ft | 490 kts | 159° |
| 2026-04-22 02:46 | 29.69448 | -5.33291 | 36927 ft | 489 kts | 160° |
| 2026-04-22 02:47 | 29.63225 | -5.30114 | 36926 ft | 489 kts | 160° |
| 2026-04-22 02:47 | 29.57011 | -5.26946 | 36923 ft | 488 kts | 160° |
| 2026-04-22 02:48 | 29.50791 | -5.23779 | 36924 ft | 488 kts | 160° |
| 2026-04-22 02:48 | 29.44622 | -5.20643 | 36923 ft | 488 kts | 160° |
| 2026-04-22 02:49 | 29.38411 | -5.17489 | 36918 ft | 488 kts | 160° |
| 2026-04-22 02:49 | 29.32202 | -5.14340 | 36921 ft | 488 kts | 160° |
| 2026-04-22 02:50 | 29.25989 | -5.11194 | 36913 ft | 488 kts | 160° |
| 2026-04-22 02:50 | 29.19776 | -5.08052 | 36914 ft | 488 kts | 160° |
| 2026-04-22 02:51 | 29.13600 | -5.04933 | 36917 ft | 488 kts | 160° |
| 2026-04-22 02:51 | 29.07382 | -5.01796 | 36911 ft | 488 kts | 160° |
| 2026-04-22 02:52 | 29.01166 | -4.98665 | 36910 ft | 488 kts | 160° |
| 2026-04-22 02:52 | 28.94951 | -4.95538 | 36913 ft | 488 kts | 160° |
| 2026-04-22 02:53 | 28.88725 | -4.92410 | 36901 ft | 488 kts | 161° |
| 2026-04-22 02:53 | 28.82501 | -4.89287 | 36902 ft | 489 kts | 161° |
| 2026-04-22 02:54 | 28.76306 | -4.86183 | 36896 ft | 489 kts | 161° |
| 2026-04-22 02:54 | 28.70057 | -4.83056 | 36889 ft | 490 kts | 161° |
| 2026-04-22 02:55 | 28.63807 | -4.79932 | 36899 ft | 491 kts | 161° |
| 2026-04-22 02:55 | 28.57588 | -4.76828 | 36889 ft | 491 kts | 161° |
| 2026-04-22 02:56 | 28.51323 | -4.73705 | 36887 ft | 492 kts | 161° |
| 2026-04-22 02:56 | 28.45041 | -4.70578 | 36881 ft | 493 kts | 161° |
| 2026-04-22 02:57 | 28.38758 | -4.67454 | 36868 ft | 493 kts | 161° |
| 2026-04-22 02:57 | 28.32469 | -4.64330 | 36868 ft | 494 kts | 161° |
| 2026-04-22 02:58 | 28.26167 | -4.61205 | 36871 ft | 494 kts | 161° |
| 2026-04-22 02:58 | 28.19898 | -4.58100 | 36866 ft | 494 kts | 162° |
| 2026-04-22 02:59 | 28.13581 | -4.54974 | 36862 ft | 494 kts | 162° |
| 2026-04-22 02:59 | 28.07269 | -4.51855 | 36854 ft | 494 kts | 162° |
| 2026-04-22 03:00 | 28.00942 | -4.48807 | 36855 ft | 491 kts | 165° |
| 2026-04-22 03:00 | 27.94566 | -4.46150 | 36850 ft | 490 kts | 166° |
| 2026-04-22 03:01 | 27.88134 | -4.43543 | 36850 ft | 490 kts | 166° |
| 2026-04-22 03:01 | 27.81745 | -4.40930 | 36858 ft | 491 kts | 166° |
| 2026-04-22 03:02 | 27.75326 | -4.38288 | 36853 ft | 491 kts | 166° |
| 2026-04-22 03:02 | 27.68908 | -4.35642 | 36844 ft | 491 kts | 166° |
| 2026-04-22 03:03 | 27.62489 | -4.33002 | 36853 ft | 491 kts | 166° |
| 2026-04-22 03:03 | 27.56064 | -4.30364 | 36852 ft | 491 kts | 166° |
| 2026-04-22 03:04 | 27.49627 | -4.27725 | 36847 ft | 492 kts | 166° |
| 2026-04-22 03:04 | 27.43193 | -4.25089 | 36850 ft | 492 kts | 166° |
| 2026-04-22 03:05 | 27.36760 | -4.22458 | 36849 ft | 492 kts | 166° |
| 2026-04-22 03:05 | 27.30355 | -4.19840 | 36854 ft | 493 kts | 166° |
| 2026-04-22 03:06 | 27.23912 | -4.17210 | 36852 ft | 493 kts | 166° |
| 2026-04-22 03:06 | 27.17441 | -4.14562 | 36853 ft | 494 kts | 166° |
| 2026-04-22 03:07 | 27.10972 | -4.11906 | 36852 ft | 495 kts | 166° |
| 2026-04-22 03:07 | 27.04492 | -4.09247 | 36856 ft | 496 kts | 166° |
| 2026-04-22 03:08 | 26.98008 | -4.06592 | 36852 ft | 496 kts | 166° |
| 2026-04-22 03:08 | 26.91555 | -4.03953 | 36855 ft | 497 kts | 166° |
| 2026-04-22 03:09 | 26.85055 | -4.01298 | 36851 ft | 497 kts | 167° |
| 2026-04-22 03:09 | 26.78555 | -3.98647 | 36854 ft | 497 kts | 167° |
| 2026-04-22 03:10 | 26.72055 | -3.95998 | 36854 ft | 496 kts | 167° |
| 2026-04-22 03:10 | 26.65568 | -3.93359 | 36851 ft | 496 kts | 167° |
| 2026-04-22 03:11 | 26.59085 | -3.90724 | 36848 ft | 495 kts | 167° |
| 2026-04-22 03:11 | 26.52609 | -3.88096 | 36849 ft | 495 kts | 167° |
| 2026-04-22 03:12 | 26.46180 | -3.85489 | 36852 ft | 494 kts | 167° |
| 2026-04-22 03:12 | 26.36472 | -3.81559 | 36853 ft | 494 kts | 167° |
| 2026-04-22 03:13 | 26.30009 | -3.78947 | 36856 ft | 494 kts | 168° |
| 2026-04-22 03:13 | 26.23546 | -3.76337 | 36849 ft | 494 kts | 168° |
| 2026-04-22 03:14 | 26.17115 | -3.73743 | 36853 ft | 494 kts | 168° |
| 2026-04-22 03:14 | 26.10644 | -3.71134 | 36855 ft | 495 kts | 168° |
| 2026-04-22 03:15 | 26.04176 | -3.68480 | 36848 ft | 495 kts | 168° |
| 2026-04-22 03:15 | 25.97710 | -3.65807 | 36843 ft | 496 kts | 168° |
| 2026-04-22 03:16 | 25.91271 | -3.63150 | 36849 ft | 496 kts | 168° |
| 2026-04-22 03:16 | 25.84786 | -3.60483 | 36847 ft | 496 kts | 168° |
| 2026-04-22 03:17 | 25.78292 | -3.57818 | 36846 ft | 497 kts | 168° |
| 2026-04-22 03:17 | 25.71804 | -3.55158 | 36846 ft | 497 kts | 168° |
| 2026-04-22 03:18 | 25.65350 | -3.52516 | 36848 ft | 498 kts | 168° |
| 2026-04-22 03:18 | 25.58841 | -3.49854 | 36838 ft | 498 kts | 168° |
| 2026-04-22 03:19 | 25.52327 | -3.47192 | 36844 ft | 499 kts | 168° |
| 2026-04-22 03:19 | 25.45804 | -3.44530 | 36845 ft | 499 kts | 168° |
| 2026-04-22 03:20 | 25.39324 | -3.41889 | 36843 ft | 500 kts | 168° |
| 2026-04-22 03:20 | 25.32799 | -3.39232 | 36840 ft | 500 kts | 168° |
| 2026-04-22 03:21 | 25.26263 | -3.36574 | 36844 ft | 500 kts | 168° |
| 2026-04-22 03:21 | 25.19710 | -3.33912 | 36836 ft | 501 kts | 168° |
| 2026-04-22 03:22 | 25.13208 | -3.31275 | 36846 ft | 501 kts | 168° |
| 2026-04-22 03:22 | 25.06652 | -3.28617 | 36839 ft | 502 kts | 168° |
| 2026-04-22 03:23 | 25.00087 | -3.25960 | 36845 ft | 502 kts | 168° |
| 2026-04-22 03:23 | 24.93527 | -3.23307 | 36845 ft | 502 kts | 169° |
| 2026-04-22 03:24 | 24.86961 | -3.20655 | 36847 ft | 503 kts | 169° |
| 2026-04-22 03:24 | 24.80375 | -3.17998 | 36849 ft | 503 kts | 169° |
| 2026-04-22 03:25 | 24.73838 | -3.15364 | 36848 ft | 504 kts | 169° |
| 2026-04-22 03:25 | 24.67248 | -3.12711 | 36850 ft | 504 kts | 169° |
| 2026-04-22 03:26 | 24.60656 | -3.10061 | 36848 ft | 504 kts | 169° |
| 2026-04-22 03:26 | 24.54050 | -3.07408 | 36855 ft | 505 kts | 169° |
| 2026-04-22 03:27 | 24.47445 | -3.04758 | 36849 ft | 506 kts | 169° |
| 2026-04-22 03:27 | 24.40828 | -3.02107 | 36849 ft | 507 kts | 169° |
| 2026-04-22 03:28 | 24.34199 | -2.99453 | 36852 ft | 507 kts | 169° |
| 2026-04-22 03:28 | 24.27559 | -2.96798 | 36854 ft | 508 kts | 169° |
| 2026-04-22 03:29 | 24.20939 | -2.94155 | 36858 ft | 509 kts | 169° |
| 2026-04-22 03:29 | 24.14268 | -2.91494 | 36855 ft | 511 kts | 169° |
| 2026-04-22 03:30 | 24.07575 | -2.88826 | 36849 ft | 512 kts | 169° |
| 2026-04-22 03:30 | 24.00866 | -2.86156 | 36847 ft | 513 kts | 169° |
| 2026-04-22 03:31 | 23.94149 | -2.83484 | 36853 ft | 514 kts | 169° |
| 2026-04-22 03:31 | 23.87410 | -2.80808 | 36851 ft | 516 kts | 169° |
| 2026-04-22 03:32 | 23.80688 | -2.78141 | 36858 ft | 517 kts | 169° |
| 2026-04-22 03:32 | 23.73906 | -2.75452 | 36862 ft | 519 kts | 169° |
| 2026-04-22 03:33 | 23.67105 | -2.72758 | 36850 ft | 520 kts | 170° |
| 2026-04-22 03:33 | 23.60282 | -2.70098 | 36850 ft | 520 kts | 171° |
| 2026-04-22 03:34 | 23.53437 | -2.67492 | 36853 ft | 521 kts | 171° |
| 2026-04-22 03:34 | 23.46628 | -2.64905 | 36850 ft | 522 kts | 171° |
| 2026-04-22 03:35 | 23.39766 | -2.62289 | 36850 ft | 523 kts | 171° |
| 2026-04-22 03:35 | 23.34014 | -2.60093 | 36846 ft | 523 kts | 171° |
| 2026-04-22 03:36 | 23.27142 | -2.57472 | 36853 ft | 523 kts | 171° |
| 2026-04-22 03:36 | 23.20296 | -2.54864 | 36853 ft | 524 kts | 171° |
| 2026-04-22 03:37 | 23.13402 | -2.52242 | 36852 ft | 525 kts | 171° |
| 2026-04-22 03:37 | 23.06494 | -2.49618 | 36857 ft | 526 kts | 172° |
| 2026-04-22 03:38 | 22.99580 | -2.46995 | 36861 ft | 526 kts | 172° |
| 2026-04-22 03:38 | 22.92647 | -2.44367 | 36865 ft | 527 kts | 172° |
| 2026-04-22 03:39 | 22.85747 | -2.41754 | 36864 ft | 528 kts | 172° |
| 2026-04-22 03:39 | 22.78794 | -2.39124 | 36866 ft | 529 kts | 172° |
| 2026-04-22 03:40 | 22.71834 | -2.36494 | 36889 ft | 530 kts | 172° |
| 2026-04-22 03:40 | 22.64850 | -2.33857 | 36867 ft | 531 kts | 172° |
| 2026-04-22 03:41 | 22.57871 | -2.31225 | 36879 ft | 531 kts | 172° |
| 2026-04-22 03:41 | 22.50879 | -2.28592 | 36874 ft | 532 kts | 172° |
| 2026-04-22 03:42 | 22.43931 | -2.25977 | 36867 ft | 532 kts | 172° |
| 2026-04-22 03:42 | 22.36934 | -2.23346 | 36866 ft | 532 kts | 172° |
| 2026-04-22 03:43 | 22.29942 | -2.20721 | 36865 ft | 532 kts | 172° |
| 2026-04-22 03:43 | 22.22939 | -2.18094 | 36868 ft | 532 kts | 172° |
| 2026-04-22 03:44 | 22.15925 | -2.15466 | 36868 ft | 533 kts | 172° |
| 2026-04-22 03:44 | 22.08901 | -2.12836 | 36871 ft | 534 kts | 172° |
| 2026-04-22 03:45 | 22.01874 | -2.10211 | 36871 ft | 535 kts | 173° |
| 2026-04-22 03:45 | 21.94884 | -2.07608 | 36872 ft | 535 kts | 173° |
| 2026-04-22 03:46 | 21.87830 | -2.04983 | 36871 ft | 536 kts | 173° |
| 2026-04-22 03:46 | 21.80762 | -2.02354 | 36868 ft | 537 kts | 173° |
| 2026-04-22 03:47 | 21.73679 | -1.99721 | 36869 ft | 538 kts | 173° |
| 2026-04-22 03:47 | 21.66642 | -1.97107 | 36865 ft | 538 kts | 173° |
| 2026-04-22 03:48 | 21.59566 | -1.94482 | 36865 ft | 538 kts | 173° |
| 2026-04-22 03:48 | 21.52479 | -1.91856 | 36860 ft | 538 kts | 173° |
| 2026-04-22 03:49 | 21.45398 | -1.89235 | 36874 ft | 537 kts | 173° |
| 2026-04-22 03:49 | 21.38364 | -1.86634 | 36865 ft | 537 kts | 173° |
| 2026-04-22 03:50 | 21.31300 | -1.84025 | 36864 ft | 536 kts | 173° |
| 2026-04-22 03:50 | 21.24237 | -1.81419 | 36856 ft | 536 kts | 173° |
| 2026-04-22 03:51 | 21.17184 | -1.78819 | 36856 ft | 536 kts | 173° |
| 2026-04-22 03:51 | 21.10131 | -1.76222 | 36858 ft | 535 kts | 173° |
| 2026-04-22 03:52 | 21.03126 | -1.73645 | 36859 ft | 535 kts | 173° |
| 2026-04-22 03:52 | 20.96082 | -1.71056 | 36856 ft | 535 kts | 173° |
| 2026-04-22 03:53 | 20.89043 | -1.68472 | 36853 ft | 534 kts | 173° |
| 2026-04-22 03:53 | 20.82001 | -1.65889 | 36848 ft | 534 kts | 173° |
| 2026-04-22 03:54 | 20.74964 | -1.63310 | 36851 ft | 533 kts | 173° |
| 2026-04-22 03:54 | 20.67989 | -1.60757 | 36854 ft | 532 kts | 173° |
| 2026-04-22 03:55 | 20.60975 | -1.58192 | 36855 ft | 532 kts | 172° |
| 2026-04-22 03:55 | 20.53978 | -1.55636 | 36860 ft | 532 kts | 172° |
| 2026-04-22 03:56 | 20.46979 | -1.53081 | 36854 ft | 531 kts | 172° |
| 2026-04-22 03:56 | 20.39968 | -1.50525 | 36849 ft | 531 kts | 172° |
| 2026-04-22 03:57 | 20.32975 | -1.47977 | 36857 ft | 532 kts | 172° |
| 2026-04-22 03:57 | 20.29455 | -1.46697 | 36985 ft | 534 kts | 172° |
| 2026-04-22 03:57 | 20.25985 | -1.45432 | 37317 ft | 532 kts | 172° |
| 2026-04-22 03:58 | 20.22500 | -1.44160 | 37764 ft | 526 kts | 172° |
| 2026-04-22 03:58 | 20.19046 | -1.42898 | 38204 ft | 522 kts | 173° |
| 2026-04-22 03:58 | 20.15611 | -1.41646 | 38552 ft | 519 kts | 173° |
| 2026-04-22 03:58 | 20.12185 | -1.40401 | 38742 ft | 518 kts | 173° |
| 2026-04-22 03:59 | 20.05363 | -1.37935 | 38825 ft | 522 kts | 173° |
| 2026-04-22 03:59 | 19.98501 | -1.35446 | 38847 ft | 520 kts | 173° |
| 2026-04-22 04:00 | 19.91668 | -1.32964 | 38845 ft | 517 kts | 173° |
| 2026-04-22 04:00 | 19.84868 | -1.30498 | 38838 ft | 515 kts | 173° |
| 2026-04-22 04:01 | 19.78062 | -1.28038 | 38847 ft | 518 kts | 173° |
| 2026-04-22 04:01 | 19.71228 | -1.25570 | 38858 ft | 520 kts | 172° |
| 2026-04-22 04:02 | 19.64367 | -1.23091 | 38856 ft | 521 kts | 172° |
| 2026-04-22 04:02 | 19.57503 | -1.20610 | 38846 ft | 521 kts | 172° |
| 2026-04-22 04:03 | 19.50651 | -1.18136 | 38838 ft | 520 kts | 172° |
| 2026-04-22 04:03 | 19.43851 | -1.15685 | 38842 ft | 518 kts | 172° |
| 2026-04-22 04:04 | 19.37020 | -1.13225 | 38840 ft | 517 kts | 172° |
| 2026-04-22 04:04 | 19.30202 | -1.10772 | 38843 ft | 516 kts | 172° |
| 2026-04-22 04:05 | 19.23409 | -1.08330 | 38835 ft | 515 kts | 172° |
| 2026-04-22 04:05 | 19.16668 | -1.05910 | 38853 ft | 514 kts | 172° |
| 2026-04-22 04:06 | 19.09897 | -1.03481 | 38834 ft | 513 kts | 172° |
| 2026-04-22 04:06 | 19.03124 | -1.01052 | 38850 ft | 513 kts | 172° |
| 2026-04-22 04:07 | 18.96361 | -0.98630 | 38843 ft | 512 kts | 172° |
| 2026-04-22 04:07 | 18.89616 | -0.96216 | 38848 ft | 512 kts | 172° |
| 2026-04-22 04:08 | 18.82874 | -0.93805 | 38846 ft | 511 kts | 172° |
| 2026-04-22 04:08 | 18.76142 | -0.91399 | 38854 ft | 510 kts | 172° |
| 2026-04-22 04:09 | 18.69454 | -0.89011 | 38846 ft | 509 kts | 172° |
| 2026-04-22 04:09 | 18.62737 | -0.86615 | 38855 ft | 509 kts | 172° |
| 2026-04-22 04:10 | 18.56026 | -0.84227 | 38846 ft | 509 kts | 172° |
| 2026-04-22 04:10 | 18.49342 | -0.81851 | 38852 ft | 509 kts | 172° |
| 2026-04-22 04:11 | 18.42626 | -0.79465 | 38850 ft | 509 kts | 171° |
| 2026-04-22 04:11 | 18.35907 | -0.77079 | 38848 ft | 510 kts | 171° |
| 2026-04-22 04:12 | 18.29176 | -0.74690 | 38848 ft | 510 kts | 171° |
| 2026-04-22 04:12 | 18.22441 | -0.72302 | 38846 ft | 511 kts | 171° |
| 2026-04-22 04:13 | 18.15701 | -0.69914 | 38844 ft | 511 kts | 171° |
| 2026-04-22 04:13 | 18.08957 | -0.67526 | 38841 ft | 511 kts | 171° |
| 2026-04-22 04:14 | 18.02207 | -0.65138 | 38843 ft | 511 kts | 171° |
| 2026-04-22 04:14 | 17.95464 | -0.62755 | 38842 ft | 511 kts | 171° |
| 2026-04-22 04:15 | 17.88718 | -0.60372 | 38836 ft | 511 kts | 171° |
| 2026-04-22 04:15 | 17.82008 | -0.58004 | 38837 ft | 511 kts | 171° |
| 2026-04-22 04:16 | 17.71892 | -0.54438 | 38826 ft | 511 kts | 171° |
| 2026-04-22 04:17 | 17.65141 | -0.52061 | 38831 ft | 511 kts | 171° |
| 2026-04-22 04:17 | 17.58439 | -0.49702 | 38830 ft | 510 kts | 171° |
| 2026-04-22 04:18 | 17.51706 | -0.47335 | 38826 ft | 511 kts | 171° |
| 2026-04-22 04:18 | 17.44962 | -0.44966 | 38825 ft | 511 kts | 171° |
| 2026-04-22 04:19 | 17.38229 | -0.42602 | 38829 ft | 511 kts | 171° |
| 2026-04-22 04:19 | 17.31484 | -0.40236 | 38834 ft | 511 kts | 171° |
| 2026-04-22 04:20 | 17.24741 | -0.37873 | 38831 ft | 511 kts | 171° |
| 2026-04-22 04:20 | 17.18032 | -0.35523 | 38832 ft | 512 kts | 171° |
| 2026-04-22 04:21 | 17.11266 | -0.33155 | 38829 ft | 512 kts | 171° |
| 2026-04-22 04:21 | 17.04506 | -0.30791 | 38826 ft | 512 kts | 171° |
| 2026-04-22 04:22 | 16.97746 | -0.28428 | 38823 ft | 512 kts | 171° |
| 2026-04-22 04:22 | 16.91017 | -0.26078 | 38821 ft | 512 kts | 171° |
| 2026-04-22 04:23 | 16.84250 | -0.23718 | 38820 ft | 513 kts | 171° |
| 2026-04-22 04:23 | 16.78623 | -0.21755 | 38823 ft | 513 kts | 171° |
| 2026-04-22 04:24 | 16.70703 | -0.18996 | 38812 ft | 513 kts | 171° |
| 2026-04-22 04:24 | 16.65079 | -0.17038 | 38817 ft | 513 kts | 171° |
| 2026-04-22 04:25 | 16.58314 | -0.14684 | 38816 ft | 513 kts | 171° |
| 2026-04-22 04:25 | 16.51537 | -0.12328 | 38813 ft | 512 kts | 171° |
| 2026-04-22 04:26 | 16.44812 | -0.09991 | 38817 ft | 512 kts | 171° |
| 2026-04-22 04:26 | 16.38043 | -0.07641 | 38814 ft | 512 kts | 171° |
| 2026-04-22 04:27 | 16.31284 | -0.05296 | 38818 ft | 512 kts | 171° |
| 2026-04-22 04:27 | 16.24519 | -0.02950 | 38817 ft | 512 kts | 171° |
| 2026-04-22 04:28 | 16.17721 | -0.00797 | 38810 ft | 508 kts | 174° |
| 2026-04-22 04:28 | 16.10902 | 0.01102 | 38828 ft | 507 kts | 174° |
| 2026-04-22 04:29 | 16.04070 | 0.03016 | 38820 ft | 508 kts | 173° |
| 2026-04-22 04:29 | 15.97291 | 0.04966 | 38821 ft | 508 kts | 173° |
| 2026-04-22 04:30 | 15.90483 | 0.06941 | 38821 ft | 508 kts | 173° |
| 2026-04-22 04:30 | 15.83680 | 0.08911 | 38821 ft | 507 kts | 173° |
| 2026-04-22 04:31 | 15.76893 | 0.10872 | 38820 ft | 506 kts | 173° |
| 2026-04-22 04:31 | 15.70116 | 0.12827 | 38816 ft | 505 kts | 173° |
| 2026-04-22 04:32 | 15.63344 | 0.14780 | 38813 ft | 504 kts | 173° |
| 2026-04-22 04:32 | 15.56598 | 0.16724 | 38816 ft | 503 kts | 172° |
| 2026-04-22 04:33 | 15.49841 | 0.18670 | 38815 ft | 502 kts | 172° |
| 2026-04-22 04:33 | 15.43149 | 0.20595 | 38812 ft | 502 kts | 172° |
| 2026-04-22 04:34 | 15.36410 | 0.22534 | 38810 ft | 502 kts | 172° |
| 2026-04-22 04:34 | 15.29681 | 0.24468 | 38805 ft | 502 kts | 172° |
| 2026-04-22 04:35 | 15.22956 | 0.26400 | 38803 ft | 501 kts | 172° |
| 2026-04-22 04:35 | 15.16225 | 0.28333 | 38802 ft | 501 kts | 172° |
| 2026-04-22 04:36 | 15.09533 | 0.30253 | 38804 ft | 501 kts | 172° |
| 2026-04-22 04:36 | 15.02794 | 0.32186 | 38793 ft | 501 kts | 172° |
| 2026-04-22 04:37 | 14.96079 | 0.34111 | 38798 ft | 501 kts | 172° |
| 2026-04-22 04:37 | 14.89415 | 0.36020 | 38787 ft | 496 kts | 171° |
| 2026-04-22 04:38 | 14.82805 | 0.37916 | 38786 ft | 491 kts | 171° |
| 2026-04-22 04:38 | 14.76229 | 0.39795 | 38787 ft | 489 kts | 171° |
| 2026-04-22 04:39 | 14.69679 | 0.41666 | 38791 ft | 487 kts | 171° |
| 2026-04-22 04:39 | 14.63142 | 0.43531 | 38794 ft | 487 kts | 171° |
| 2026-04-22 04:40 | 14.56592 | 0.45401 | 38794 ft | 488 kts | 171° |
| 2026-04-22 04:40 | 14.50045 | 0.47268 | 38797 ft | 489 kts | 171° |
| 2026-04-22 04:41 | 14.43519 | 0.49129 | 38799 ft | 490 kts | 171° |
| 2026-04-22 04:41 | 14.36940 | 0.51004 | 38798 ft | 491 kts | 171° |
| 2026-04-22 04:42 | 14.30340 | 0.52883 | 38800 ft | 492 kts | 170° |
| 2026-04-22 04:42 | 14.23735 | 0.54764 | 38804 ft | 492 kts | 170° |
| 2026-04-22 04:43 | 14.17166 | 0.56633 | 38801 ft | 492 kts | 170° |
| 2026-04-22 04:43 | 14.10555 | 0.58513 | 38802 ft | 492 kts | 170° |
| 2026-04-22 04:44 | 14.03952 | 0.60389 | 38804 ft | 491 kts | 170° |
| 2026-04-22 04:44 | 13.97357 | 0.62262 | 38802 ft | 491 kts | 170° |
| 2026-04-22 04:45 | 13.90809 | 0.64120 | 38806 ft | 490 kts | 170° |
| 2026-04-22 04:45 | 13.84234 | 0.65985 | 38804 ft | 489 kts | 169° |
| 2026-04-22 04:46 | 13.77683 | 0.67842 | 38805 ft | 488 kts | 169° |
| 2026-04-22 04:46 | 13.71123 | 0.69691 | 38808 ft | 487 kts | 169° |
| 2026-04-22 04:47 | 13.64630 | 0.71519 | 38810 ft | 486 kts | 169° |
| 2026-04-22 04:47 | 13.58110 | 0.73355 | 38810 ft | 486 kts | 169° |
| 2026-04-22 04:48 | 13.51581 | 0.75194 | 38811 ft | 485 kts | 169° |
| 2026-04-22 04:48 | 13.45075 | 0.77025 | 38810 ft | 484 kts | 169° |
| 2026-04-22 04:49 | 13.38571 | 0.78854 | 38814 ft | 484 kts | 169° |
| 2026-04-22 04:49 | 13.32077 | 0.80685 | 38816 ft | 484 kts | 169° |
| 2026-04-22 04:50 | 13.25629 | 0.82507 | 38815 ft | 483 kts | 169° |
| 2026-04-22 04:50 | 13.19138 | 0.84341 | 38818 ft | 483 kts | 169° |
| 2026-04-22 04:51 | 13.12657 | 0.86170 | 38817 ft | 483 kts | 169° |
| 2026-04-22 04:51 | 13.06163 | 0.88001 | 38817 ft | 483 kts | 168° |
| 2026-04-22 04:52 | 12.99673 | 0.89823 | 38817 ft | 484 kts | 169° |
| 2026-04-22 04:52 | 12.93173 | 0.91646 | 38820 ft | 484 kts | 168° |
| 2026-04-22 04:53 | 12.86664 | 0.93472 | 38817 ft | 484 kts | 168° |
| 2026-04-22 04:53 | 12.80196 | 0.95286 | 38817 ft | 485 kts | 168° |
| 2026-04-22 04:54 | 12.73675 | 0.97114 | 38817 ft | 485 kts | 168° |
| 2026-04-22 04:54 | 12.67151 | 0.98942 | 38816 ft | 486 kts | 168° |
| 2026-04-22 04:55 | 12.60658 | 1.00760 | 38820 ft | 486 kts | 168° |
| 2026-04-22 04:55 | 12.54126 | 1.02588 | 38820 ft | 487 kts | 168° |
| 2026-04-22 04:56 | 12.47583 | 1.04419 | 38820 ft | 488 kts | 168° |
| 2026-04-22 04:56 | 12.41036 | 1.06249 | 38819 ft | 488 kts | 168° |
| 2026-04-22 04:57 | 12.34475 | 1.08083 | 38818 ft | 488 kts | 168° |
| 2026-04-22 04:57 | 12.27917 | 1.09915 | 38818 ft | 489 kts | 168° |
| 2026-04-22 04:58 | 12.21349 | 1.11749 | 38817 ft | 489 kts | 168° |
| 2026-04-22 04:58 | 12.14817 | 1.13572 | 38816 ft | 489 kts | 168° |
| 2026-04-22 04:59 | 12.08255 | 1.15402 | 38819 ft | 488 kts | 168° |
| 2026-04-22 04:59 | 12.01697 | 1.17231 | 38821 ft | 488 kts | 168° |
| 2026-04-22 05:00 | 11.95181 | 1.19048 | 38812 ft | 488 kts | 168° |
| 2026-04-22 05:00 | 11.88629 | 1.20875 | 38817 ft | 487 kts | 168° |
| 2026-04-22 05:01 | 11.82093 | 1.22696 | 38810 ft | 486 kts | 168° |
| 2026-04-22 05:01 | 11.75561 | 1.24516 | 38810 ft | 486 kts | 168° |
| 2026-04-22 05:02 | 11.69045 | 1.26330 | 38813 ft | 485 kts | 168° |
| 2026-04-22 05:02 | 11.62532 | 1.28142 | 38812 ft | 485 kts | 168° |
| 2026-04-22 05:03 | 11.56018 | 1.29954 | 38812 ft | 485 kts | 168° |
| 2026-04-22 05:03 | 11.49507 | 1.31763 | 38808 ft | 484 kts | 168° |
| 2026-04-22 05:04 | 11.43035 | 1.33562 | 38811 ft | 484 kts | 168° |
| 2026-04-22 05:04 | 11.36531 | 1.35368 | 38807 ft | 484 kts | 168° |
| 2026-04-22 05:05 | 11.30029 | 1.37173 | 38802 ft | 484 kts | 168° |
| 2026-04-22 05:05 | 11.23520 | 1.38979 | 38803 ft | 484 kts | 167° |
| 2026-04-22 05:06 | 11.17064 | 1.40770 | 38810 ft | 484 kts | 167° |
| 2026-04-22 05:06 | 11.10559 | 1.42573 | 38807 ft | 484 kts | 167° |
| 2026-04-22 05:07 | 11.04054 | 1.44376 | 38808 ft | 484 kts | 167° |
| 2026-04-22 05:07 | 10.97556 | 1.46194 | 38816 ft | 484 kts | 167° |
| 2026-04-22 05:08 | 10.91087 | 1.48125 | 38814 ft | 484 kts | 166° |
| 2026-04-22 05:08 | 10.84630 | 1.50084 | 38824 ft | 484 kts | 166° |
| 2026-04-22 05:09 | 10.78206 | 1.52020 | 38823 ft | 484 kts | 166° |
| 2026-04-22 05:09 | 10.71741 | 1.53955 | 38829 ft | 484 kts | 166° |
| 2026-04-22 05:10 | 10.65277 | 1.55886 | 38830 ft | 484 kts | 166° |
| 2026-04-22 05:10 | 10.58807 | 1.57818 | 38833 ft | 484 kts | 166° |
| 2026-04-22 05:11 | 10.52336 | 1.59750 | 38830 ft | 485 kts | 166° |
| 2026-04-22 05:11 | 10.45857 | 1.61684 | 38832 ft | 485 kts | 166° |
| 2026-04-22 05:12 | 10.39419 | 1.63604 | 38836 ft | 485 kts | 166° |
| 2026-04-22 05:12 | 10.32942 | 1.65536 | 38835 ft | 485 kts | 166° |
| 2026-04-22 05:13 | 10.27556 | 1.67142 | 38839 ft | 485 kts | 166° |
| 2026-04-22 05:13 | 10.19975 | 1.69400 | 38841 ft | 486 kts | 166° |
| 2026-04-22 05:14 | 10.14577 | 1.71008 | 38836 ft | 486 kts | 166° |
| 2026-04-22 05:14 | 10.08075 | 1.72944 | 38838 ft | 486 kts | 166° |
| 2026-04-22 05:15 | 10.01577 | 1.74878 | 38838 ft | 487 kts | 166° |
| 2026-04-22 05:15 | 9.95116 | 1.76800 | 38842 ft | 487 kts | 166° |
| 2026-04-22 05:16 | 9.88618 | 1.78733 | 38839 ft | 487 kts | 166° |
| 2026-04-22 05:16 | 9.82115 | 1.80666 | 38842 ft | 486 kts | 166° |
| 2026-04-22 05:17 | 9.75623 | 1.82595 | 38840 ft | 486 kts | 166° |
| 2026-04-22 05:17 | 9.69134 | 1.84522 | 38841 ft | 485 kts | 166° |
| 2026-04-22 05:18 | 9.59479 | 1.87389 | 38843 ft | 484 kts | 165° |
| 2026-04-22 05:18 | 9.53019 | 1.89306 | 38844 ft | 483 kts | 165° |
| 2026-04-22 05:19 | 9.46572 | 1.91218 | 38846 ft | 482 kts | 165° |
| 2026-04-22 05:19 | 9.40113 | 1.93061 | 38844 ft | 481 kts | 166° |
| 2026-04-22 05:20 | 9.33649 | 1.94841 | 38846 ft | 481 kts | 166° |
| 2026-04-22 05:20 | 9.27233 | 1.96612 | 38849 ft | 481 kts | 166° |
| 2026-04-22 05:21 | 9.20777 | 1.98405 | 38849 ft | 481 kts | 166° |
| 2026-04-22 05:21 | 9.14311 | 2.00205 | 38850 ft | 481 kts | 166° |
| 2026-04-22 05:22 | 9.07862 | 2.02000 | 38851 ft | 481 kts | 166° |
| 2026-04-22 05:22 | 9.01409 | 2.03795 | 38852 ft | 481 kts | 166° |
| 2026-04-22 05:23 | 8.94957 | 2.05588 | 38856 ft | 480 kts | 165° |
| 2026-04-22 05:23 | 8.88512 | 2.07379 | 38853 ft | 480 kts | 165° |
| 2026-04-22 05:24 | 8.82115 | 2.09156 | 38853 ft | 480 kts | 165° |
| 2026-04-22 05:24 | 8.75678 | 2.10943 | 38853 ft | 480 kts | 165° |
| 2026-04-22 05:25 | 8.69240 | 2.12730 | 38851 ft | 479 kts | 165° |
| 2026-04-22 05:25 | 8.62790 | 2.14520 | 38851 ft | 479 kts | 165° |
| 2026-04-22 05:26 | 8.56354 | 2.16305 | 38853 ft | 479 kts | 165° |
| 2026-04-22 05:26 | 8.49926 | 2.18087 | 38854 ft | 479 kts | 165° |
| 2026-04-22 05:27 | 8.43528 | 2.19861 | 38853 ft | 479 kts | 165° |
| 2026-04-22 05:27 | 8.37099 | 2.21643 | 38849 ft | 479 kts | 165° |
| 2026-04-22 05:28 | 8.30669 | 2.23424 | 38851 ft | 479 kts | 165° |
| 2026-04-22 05:28 | 8.24231 | 2.25206 | 38851 ft | 478 kts | 165° |
| 2026-04-22 05:29 | 8.17851 | 2.26973 | 38852 ft | 478 kts | 165° |
| 2026-04-22 05:29 | 8.11433 | 2.28749 | 38853 ft | 478 kts | 165° |
| 2026-04-22 05:30 | 8.05011 | 2.30526 | 38856 ft | 478 kts | 165° |
| 2026-04-22 05:30 | 7.98593 | 2.32301 | 38853 ft | 478 kts | 165° |
| 2026-04-22 05:31 | 7.92215 | 2.34064 | 38854 ft | 477 kts | 165° |
| 2026-04-22 05:31 | 7.85743 | 2.35557 | 38860 ft | 477 kts | 172° |
| 2026-04-22 05:32 | 7.79130 | 2.35964 | 38858 ft | 476 kts | 179° |
| 2026-04-22 05:32 | 7.72501 | 2.36066 | 38853 ft | 476 kts | 179° |
| 2026-04-22 05:33 | 7.65876 | 2.36182 | 38855 ft | 476 kts | 179° |
| 2026-04-22 05:33 | 7.59254 | 2.36327 | 38854 ft | 476 kts | 179° |
| 2026-04-22 05:34 | 7.52678 | 2.36482 | 38866 ft | 475 kts | 179° |
| 2026-04-22 05:34 | 7.46063 | 2.36639 | 38861 ft | 475 kts | 179° |
| 2026-04-22 05:35 | 7.39450 | 2.36794 | 38863 ft | 475 kts | 179° |
| 2026-04-22 05:35 | 7.32842 | 2.36948 | 38861 ft | 475 kts | 179° |
| 2026-04-22 05:36 | 7.26232 | 2.37102 | 38862 ft | 474 kts | 179° |
| 2026-04-22 05:36 | 7.19635 | 2.37256 | 38865 ft | 474 kts | 179° |
| 2026-04-22 05:37 | 7.13080 | 2.37409 | 38860 ft | 473 kts | 179° |
| 2026-04-22 05:37 | 7.06492 | 2.37562 | 38855 ft | 473 kts | 179° |
| 2026-04-22 05:38 | 6.99909 | 2.37716 | 38860 ft | 473 kts | 179° |
| 2026-04-22 05:38 | 6.93329 | 2.37869 | 38861 ft | 472 kts | 179° |
| 2026-04-22 05:39 | 6.86755 | 2.38022 | 38863 ft | 472 kts | 179° |
| 2026-04-22 05:39 | 6.80185 | 2.38175 | 38857 ft | 472 kts | 179° |
| 2026-04-22 05:40 | 6.73631 | 2.38336 | 38860 ft | 471 kts | 178° |
| 2026-04-22 05:40 | 6.67077 | 2.38507 | 38860 ft | 471 kts | 178° |
| 2026-04-22 05:41 | 6.60564 | 2.38675 | 38858 ft | 471 kts | 178° |
| 2026-04-22 05:41 | 6.54004 | 2.38844 | 38855 ft | 471 kts | 178° |
| 2026-04-22 05:42 | 6.47449 | 2.39012 | 38851 ft | 471 kts | 178° |
| 2026-04-22 05:42 | 6.40889 | 2.39180 | 38852 ft | 471 kts | 178° |
| 2026-04-22 05:43 | 6.34375 | 2.39818 | 38854 ft | 471 kts | 169° |
| 2026-04-22 05:43 | 6.28070 | 2.41475 | 38850 ft | 471 kts | 164° |
| 2026-04-22 05:44 | 6.21766 | 2.43282 | 38851 ft | 471 kts | 164° |
| 2026-04-22 05:44 | 6.15445 | 2.45040 | 38847 ft | 472 kts | 164° |
| 2026-04-22 05:45 | 6.09111 | 2.46781 | 38841 ft | 472 kts | 165° |
| 2026-04-22 05:45 | 6.02768 | 2.48493 | 38839 ft | 472 kts | 165° |
| 2026-04-22 05:46 | 5.96416 | 2.50207 | 38839 ft | 472 kts | 165° |
| 2026-04-22 05:46 | 5.90071 | 2.51923 | 38838 ft | 472 kts | 164° |
| 2026-04-22 05:47 | 5.83772 | 2.53642 | 38838 ft | 472 kts | 164° |
| 2026-04-22 05:47 | 5.77436 | 2.55377 | 38842 ft | 472 kts | 164° |
| 2026-04-22 05:48 | 5.71104 | 2.57111 | 38839 ft | 471 kts | 164° |
| 2026-04-22 05:48 | 5.64778 | 2.58840 | 38839 ft | 471 kts | 164° |
| 2026-04-22 05:49 | 5.58447 | 2.60570 | 38842 ft | 471 kts | 164° |
| 2026-04-22 05:49 | 5.52120 | 2.62299 | 38838 ft | 470 kts | 164° |
| 2026-04-22 05:50 | 5.45800 | 2.64025 | 38839 ft | 470 kts | 164° |
| 2026-04-22 05:50 | 5.39528 | 2.65738 | 38838 ft | 470 kts | 164° |
| 2026-04-22 05:51 | 5.33214 | 2.67462 | 38841 ft | 470 kts | 164° |
| 2026-04-22 05:51 | 5.26903 | 2.69185 | 38842 ft | 470 kts | 164° |
| 2026-04-22 05:52 | 5.20601 | 2.70905 | 38841 ft | 470 kts | 163° |
| 2026-04-22 05:52 | 5.14288 | 2.72628 | 38847 ft | 470 kts | 163° |
| 2026-04-22 05:53 | 5.07978 | 2.74350 | 38844 ft | 470 kts | 163° |
| 2026-04-22 05:53 | 5.01701 | 2.76062 | 38843 ft | 470 kts | 163° |
| 2026-04-22 05:54 | 4.95384 | 2.77785 | 38843 ft | 470 kts | 163° |
| 2026-04-22 05:54 | 4.89068 | 2.79508 | 38843 ft | 470 kts | 163° |
| 2026-04-22 05:55 | 4.82748 | 2.81231 | 38842 ft | 470 kts | 163° |
| 2026-04-22 05:55 | 4.76437 | 2.82954 | 38840 ft | 470 kts | 163° |
| 2026-04-22 05:56 | 4.70163 | 2.84667 | 38841 ft | 470 kts | 163° |
| 2026-04-22 05:56 | 4.63850 | 2.86390 | 38844 ft | 470 kts | 163° |
| 2026-04-22 05:57 | 4.57528 | 2.88114 | 38845 ft | 471 kts | 163° |
| 2026-04-22 05:57 | 4.51202 | 2.89840 | 38845 ft | 471 kts | 163° |
| 2026-04-22 05:58 | 4.44883 | 2.91564 | 38846 ft | 471 kts | 163° |
| 2026-04-22 05:58 | 4.38552 | 2.93290 | 38844 ft | 471 kts | 163° |
| 2026-04-22 05:59 | 4.32226 | 2.95015 | 38846 ft | 471 kts | 163° |
| 2026-04-22 05:59 | 4.25891 | 2.96743 | 38846 ft | 471 kts | 163° |
| 2026-04-22 06:00 | 4.19566 | 2.98467 | 38845 ft | 471 kts | 163° |
| 2026-04-22 06:00 | 4.13271 | 3.00183 | 38844 ft | 471 kts | 163° |
| 2026-04-22 06:01 | 4.06945 | 3.01907 | 38857 ft | 471 kts | 163° |
| 2026-04-22 06:01 | 4.01751 | 3.03640 | 38854 ft | 469 kts | 154° |
| 2026-04-22 06:02 | 3.96136 | 3.06845 | 38846 ft | 467 kts | 142° |
| 2026-04-22 06:02 | 3.91063 | 3.10903 | 38849 ft | 466 kts | 139° |
| 2026-04-22 06:03 | 3.86051 | 3.15043 | 38855 ft | 467 kts | 139° |
| 2026-04-22 06:03 | 3.81026 | 3.19163 | 38854 ft | 467 kts | 140° |
| 2026-04-22 06:04 | 3.75973 | 3.23269 | 38851 ft | 468 kts | 140° |
| 2026-04-22 06:04 | 3.70908 | 3.27371 | 38852 ft | 468 kts | 140° |
| 2026-04-22 06:05 | 3.65849 | 3.31467 | 38851 ft | 468 kts | 140° |
| 2026-04-22 06:05 | 3.60786 | 3.35565 | 38855 ft | 468 kts | 140° |
| 2026-04-22 06:06 | 3.55757 | 3.39637 | 38855 ft | 467 kts | 140° |
| 2026-04-22 06:06 | 3.50701 | 3.43731 | 38855 ft | 467 kts | 140° |
| 2026-04-22 06:07 | 3.45650 | 3.47820 | 38861 ft | 467 kts | 140° |
| 2026-04-22 06:07 | 3.40606 | 3.51902 | 38869 ft | 466 kts | 140° |
| 2026-04-22 06:08 | 3.35556 | 3.55989 | 38860 ft | 466 kts | 140° |
| 2026-04-22 06:08 | 3.30507 | 3.60074 | 38855 ft | 466 kts | 140° |
| 2026-04-22 06:09 | 3.25455 | 3.64162 | 38853 ft | 467 kts | 140° |
| 2026-04-22 06:09 | 3.20431 | 3.68227 | 38851 ft | 467 kts | 140° |
| 2026-04-22 06:10 | 3.15369 | 3.72321 | 38852 ft | 467 kts | 140° |
| 2026-04-22 06:10 | 3.10303 | 3.76418 | 38860 ft | 468 kts | 140° |
| 2026-04-22 06:11 | 3.05238 | 3.80513 | 38859 ft | 468 kts | 140° |
| 2026-04-22 06:11 | 3.00200 | 3.84587 | 38862 ft | 469 kts | 140° |
| 2026-04-22 06:12 | 2.95125 | 3.88690 | 38863 ft | 469 kts | 140° |
| 2026-04-22 06:12 | 2.90046 | 3.92795 | 38863 ft | 469 kts | 140° |
| 2026-04-22 06:13 | 2.84962 | 3.96904 | 38858 ft | 469 kts | 140° |
| 2026-04-22 06:13 | 2.79909 | 4.00987 | 38857 ft | 469 kts | 140° |
| 2026-04-22 06:14 | 2.74823 | 4.05098 | 38859 ft | 469 kts | 140° |
| 2026-04-22 06:14 | 2.69737 | 4.09207 | 38864 ft | 469 kts | 140° |
| 2026-04-22 06:15 | 2.64656 | 4.13311 | 38867 ft | 469 kts | 140° |
| 2026-04-22 06:15 | 2.59593 | 4.17401 | 38870 ft | 469 kts | 140° |
| 2026-04-22 06:16 | 2.54523 | 4.21496 | 38860 ft | 468 kts | 140° |
| 2026-04-22 06:16 | 2.49455 | 4.25589 | 38857 ft | 468 kts | 140° |
| 2026-04-22 06:17 | 2.44392 | 4.29678 | 38874 ft | 467 kts | 140° |
| 2026-04-22 06:17 | 2.39337 | 4.33759 | 38876 ft | 467 kts | 140° |
| 2026-04-22 06:18 | 2.34280 | 4.37842 | 38865 ft | 467 kts | 140° |
| 2026-04-22 06:18 | 2.29221 | 4.41926 | 38867 ft | 467 kts | 140° |
| 2026-04-22 06:19 | 2.24195 | 4.45983 | 38868 ft | 467 kts | 140° |
| 2026-04-22 06:19 | 2.19134 | 4.50068 | 38875 ft | 468 kts | 140° |
| 2026-04-22 06:20 | 2.14064 | 4.54160 | 38872 ft | 468 kts | 140° |
| 2026-04-22 06:20 | 2.08997 | 4.58249 | 38874 ft | 468 kts | 140° |
| 2026-04-22 06:21 | 2.03924 | 4.62343 | 38868 ft | 468 kts | 140° |
| 2026-04-22 06:21 | 1.98851 | 4.66435 | 38879 ft | 468 kts | 140° |
| 2026-04-22 06:22 | 1.93774 | 4.70532 | 38873 ft | 469 kts | 140° |
| 2026-04-22 06:22 | 1.88693 | 4.74631 | 38874 ft | 469 kts | 140° |
| 2026-04-22 06:23 | 1.83645 | 4.78703 | 38872 ft | 469 kts | 140° |
| 2026-04-22 06:23 | 1.78560 | 4.82804 | 38871 ft | 470 kts | 140° |
| 2026-04-22 06:24 | 1.70909 | 4.88976 | 38868 ft | 471 kts | 140° |
| 2026-04-22 06:25 | 1.65797 | 4.93098 | 38877 ft | 472 kts | 140° |
| 2026-04-22 06:25 | 1.60706 | 4.97204 | 38880 ft | 473 kts | 140° |
| 2026-04-22 06:26 | 1.55575 | 5.01341 | 38873 ft | 474 kts | 140° |
| 2026-04-22 06:26 | 1.50440 | 5.05481 | 38876 ft | 475 kts | 140° |
| 2026-04-22 06:27 | 1.45290 | 5.09634 | 38874 ft | 475 kts | 140° |
| 2026-04-22 06:27 | 1.40160 | 5.13770 | 38869 ft | 476 kts | 140° |
| 2026-04-22 06:28 | 1.35000 | 5.17930 | 38871 ft | 476 kts | 140° |
| 2026-04-22 06:28 | 1.29846 | 5.22085 | 38873 ft | 476 kts | 140° |
| 2026-04-22 06:29 | 1.24686 | 5.26244 | 38874 ft | 475 kts | 140° |
| 2026-04-22 06:29 | 1.19538 | 5.30394 | 38879 ft | 475 kts | 140° |
| 2026-04-22 06:30 | 1.14397 | 5.34538 | 38874 ft | 475 kts | 140° |
| 2026-04-22 06:30 | 1.09287 | 5.38657 | 38875 ft | 474 kts | 140° |
| 2026-04-22 06:31 | 1.04155 | 5.42794 | 38881 ft | 474 kts | 140° |
| 2026-04-22 06:31 | 0.99023 | 5.46930 | 38872 ft | 473 kts | 140° |
| 2026-04-22 06:32 | 0.94424 | 5.51585 | 38876 ft | 471 kts | 126° |
| 2026-04-22 06:32 | 0.91043 | 5.57163 | 38872 ft | 469 kts | 115° |
| 2026-04-22 06:33 | 0.88322 | 5.63096 | 38871 ft | 469 kts | 114° |
| 2026-04-22 06:33 | 0.85628 | 5.69038 | 38875 ft | 469 kts | 114° |
| 2026-04-22 06:34 | 0.82897 | 5.74967 | 38873 ft | 469 kts | 114° |
| 2026-04-22 06:34 | 0.80167 | 5.80837 | 38877 ft | 469 kts | 114° |
| 2026-04-22 06:35 | 0.77410 | 5.86754 | 38879 ft | 469 kts | 114° |
| 2026-04-22 06:35 | 0.74658 | 5.92662 | 38876 ft | 469 kts | 114° |
| 2026-04-22 06:36 | 0.71910 | 5.98563 | 38875 ft | 468 kts | 114° |
| 2026-04-22 06:36 | 0.69164 | 6.04462 | 38876 ft | 468 kts | 114° |
| 2026-04-22 06:37 | 0.66415 | 6.10367 | 38878 ft | 468 kts | 114° |
| 2026-04-22 06:37 | 0.63672 | 6.16259 | 38879 ft | 467 kts | 114° |
| 2026-04-22 06:38 | 0.60949 | 6.22108 | 38876 ft | 467 kts | 114° |
| 2026-04-22 06:38 | 0.58208 | 6.27996 | 38873 ft | 467 kts | 114° |
| 2026-04-22 06:39 | 0.55469 | 6.33878 | 38875 ft | 467 kts | 114° |
| 2026-04-22 06:39 | 0.52725 | 6.39772 | 38873 ft | 467 kts | 114° |
| 2026-04-22 06:40 | 0.49984 | 6.45659 | 38866 ft | 467 kts | 114° |
| 2026-04-22 06:40 | 0.47238 | 6.51557 | 38855 ft | 468 kts | 114° |
| 2026-04-22 06:41 | 0.44511 | 6.57413 | 38843 ft | 468 kts | 115° |
| 2026-04-22 06:41 | 0.41751 | 6.63301 | 38830 ft | 468 kts | 115° |
| 2026-04-22 06:42 | 0.38796 | 6.69098 | 38826 ft | 469 kts | 123° |
| 2026-04-22 06:42 | 0.34517 | 6.74008 | 38835 ft | 470 kts | 137° |
| 2026-04-22 06:43 | 0.29247 | 6.77902 | 38831 ft | 472 kts | 144° |
| 2026-04-22 06:43 | 0.23812 | 6.81625 | 38850 ft | 473 kts | 144° |
| 2026-04-22 06:44 | 0.18432 | 6.85353 | 38861 ft | 474 kts | 143° |
| 2026-04-22 06:44 | 0.13031 | 6.89149 | 38875 ft | 475 kts | 143° |
| 2026-04-22 06:45 | 0.07621 | 6.92966 | 38884 ft | 476 kts | 143° |
| 2026-04-22 06:45 | 0.02213 | 6.96783 | 38889 ft | 476 kts | 143° |
| 2026-04-22 06:46 | -0.03205 | 7.00603 | 38888 ft | 477 kts | 143° |
| 2026-04-22 06:46 | -0.08588 | 7.04399 | 38888 ft | 477 kts | 143° |
| 2026-04-22 06:47 | -0.14014 | 7.08223 | 38885 ft | 477 kts | 143° |
| 2026-04-22 06:47 | -0.19438 | 7.12048 | 38890 ft | 478 kts | 143° |
| 2026-04-22 06:48 | -0.24870 | 7.15878 | 38887 ft | 478 kts | 143° |
| 2026-04-22 06:48 | -0.30313 | 7.19715 | 38889 ft | 478 kts | 143° |
| 2026-04-22 06:49 | -0.35767 | 7.23562 | 38891 ft | 479 kts | 143° |
| 2026-04-22 06:49 | -0.41178 | 7.27378 | 38892 ft | 479 kts | 143° |
| 2026-04-22 06:50 | -0.46623 | 7.31226 | 38891 ft | 480 kts | 143° |
| 2026-04-22 06:50 | -0.52069 | 7.35089 | 38889 ft | 480 kts | 143° |
| 2026-04-22 06:51 | -0.57515 | 7.38952 | 38888 ft | 480 kts | 143° |
| 2026-04-22 06:51 | -0.62970 | 7.42820 | 38885 ft | 480 kts | 143° |
| 2026-04-22 06:52 | -0.68397 | 7.46669 | 38886 ft | 480 kts | 143° |
| 2026-04-22 06:52 | -0.73863 | 7.50527 | 38886 ft | 480 kts | 143° |
| 2026-04-22 06:53 | -0.78464 | 7.53719 | 38887 ft | 480 kts | 143° |
| 2026-04-22 06:53 | -0.83918 | 7.57517 | 38888 ft | 480 kts | 143° |
| 2026-04-22 06:54 | -0.89384 | 7.61368 | 38886 ft | 480 kts | 143° |
| 2026-04-22 06:54 | -0.94847 | 7.65221 | 38887 ft | 480 kts | 143° |
| 2026-04-22 06:55 | -1.00317 | 7.69073 | 38887 ft | 480 kts | 143° |
| 2026-04-22 06:55 | -1.05783 | 7.72928 | 38889 ft | 480 kts | 143° |
| 2026-04-22 06:56 | -1.11241 | 7.76796 | 38885 ft | 481 kts | 143° |
| 2026-04-22 06:56 | -1.16663 | 7.80641 | 38887 ft | 481 kts | 143° |
| 2026-04-22 06:57 | -1.22121 | 7.84509 | 38891 ft | 481 kts | 143° |
| 2026-04-22 06:57 | -1.27589 | 7.88384 | 38891 ft | 481 kts | 143° |
| 2026-04-22 06:58 | -1.33054 | 7.92257 | 38886 ft | 481 kts | 143° |
| 2026-04-22 06:58 | -1.38525 | 7.96121 | 38889 ft | 481 kts | 143° |
| 2026-04-22 06:59 | -1.43973 | 7.99953 | 38891 ft | 481 kts | 143° |
| 2026-04-22 06:59 | -1.49457 | 8.03812 | 38890 ft | 482 kts | 143° |
| 2026-04-22 07:00 | -1.54937 | 8.07673 | 38889 ft | 482 kts | 143° |
| 2026-04-22 07:00 | -1.60422 | 8.11538 | 38889 ft | 482 kts | 143° |
| 2026-04-22 07:01 | -1.65904 | 8.15403 | 38889 ft | 482 kts | 143° |
| 2026-04-22 07:01 | -1.71385 | 8.19264 | 38891 ft | 482 kts | 143° |
| 2026-04-22 07:02 | -1.76829 | 8.23101 | 38890 ft | 482 kts | 143° |
| 2026-04-22 07:02 | -1.82313 | 8.26965 | 38889 ft | 482 kts | 143° |
| 2026-04-22 07:03 | -1.87795 | 8.30830 | 38888 ft | 482 kts | 143° |
| 2026-04-22 07:03 | -1.93273 | 8.34693 | 38885 ft | 482 kts | 143° |
| 2026-04-22 07:04 | -1.98756 | 8.38560 | 38888 ft | 481 kts | 143° |
| 2026-04-22 07:04 | -2.04223 | 8.42417 | 38888 ft | 481 kts | 143° |
| 2026-04-22 07:05 | -2.09702 | 8.46281 | 38886 ft | 481 kts | 143° |
| 2026-04-22 07:05 | -2.15171 | 8.50139 | 38889 ft | 480 kts | 143° |
| 2026-04-22 07:06 | -2.20600 | 8.53973 | 38889 ft | 480 kts | 143° |
| 2026-04-22 07:06 | -2.26055 | 8.57825 | 38886 ft | 480 kts | 143° |
| 2026-04-22 07:07 | -2.31518 | 8.61684 | 38890 ft | 480 kts | 143° |
| 2026-04-22 07:07 | -2.36976 | 8.65539 | 38890 ft | 480 kts | 143° |
| 2026-04-22 07:08 | -2.42429 | 8.69391 | 38887 ft | 480 kts | 143° |
| 2026-04-22 07:08 | -2.47845 | 8.73217 | 38886 ft | 479 kts | 143° |
| 2026-04-22 07:09 | -2.53300 | 8.77072 | 38886 ft | 479 kts | 143° |
| 2026-04-22 07:09 | -2.58756 | 8.80927 | 38887 ft | 479 kts | 143° |
| 2026-04-22 07:10 | -2.64211 | 8.84782 | 38890 ft | 479 kts | 143° |
| 2026-04-22 07:10 | -2.69659 | 8.88633 | 38886 ft | 479 kts | 143° |
| 2026-04-22 07:11 | -2.75108 | 8.92486 | 38891 ft | 479 kts | 143° |
| 2026-04-22 07:11 | -2.80558 | 8.96339 | 38888 ft | 480 kts | 143° |
| 2026-04-22 07:12 | -2.85978 | 9.00168 | 38888 ft | 480 kts | 143° |
| 2026-04-22 07:12 | -2.91427 | 9.04018 | 38887 ft | 480 kts | 143° |
| 2026-04-22 07:13 | -2.96876 | 9.07869 | 38891 ft | 480 kts | 143° |
| 2026-04-22 07:13 | -3.02325 | 9.11722 | 38888 ft | 479 kts | 143° |
| 2026-04-22 07:14 | -3.07778 | 9.15578 | 38891 ft | 479 kts | 143° |
| 2026-04-22 07:14 | -3.13227 | 9.19431 | 38889 ft | 479 kts | 143° |
| 2026-04-22 07:15 | -3.18671 | 9.23282 | 38891 ft | 479 kts | 143° |
| 2026-04-22 07:15 | -3.24094 | 9.27119 | 38891 ft | 479 kts | 143° |
| 2026-04-22 07:16 | -3.29537 | 9.30971 | 38889 ft | 479 kts | 143° |
| 2026-04-22 07:16 | -3.34993 | 9.34832 | 38891 ft | 479 kts | 143° |
| 2026-04-22 07:17 | -3.40440 | 9.38688 | 38895 ft | 479 kts | 143° |
| 2026-04-22 07:17 | -3.45861 | 9.42529 | 38893 ft | 480 kts | 143° |
| 2026-04-22 07:18 | -3.51310 | 9.46392 | 38890 ft | 480 kts | 143° |
| 2026-04-22 07:18 | -3.56758 | 9.50255 | 38891 ft | 480 kts | 143° |
| 2026-04-22 07:19 | -3.62203 | 9.54116 | 38891 ft | 479 kts | 143° |
| 2026-04-22 07:19 | -3.67656 | 9.57984 | 38892 ft | 479 kts | 143° |
| 2026-04-22 07:20 | -3.73100 | 9.61846 | 38895 ft | 479 kts | 143° |
| 2026-04-22 07:20 | -3.78509 | 9.65686 | 38893 ft | 479 kts | 142° |
| 2026-04-22 07:21 | -3.83967 | 9.69559 | 38894 ft | 480 kts | 143° |
| 2026-04-22 07:21 | -3.89414 | 9.73419 | 38891 ft | 480 kts | 143° |
| 2026-04-22 07:22 | -3.94866 | 9.77282 | 38891 ft | 480 kts | 143° |
| 2026-04-22 07:22 | -4.00288 | 9.81127 | 38894 ft | 480 kts | 143° |
| 2026-04-22 07:23 | -4.05737 | 9.84992 | 38889 ft | 480 kts | 143° |
| 2026-04-22 07:23 | -4.11196 | 9.88865 | 38891 ft | 480 kts | 143° |
| 2026-04-22 07:24 | -4.16629 | 9.92722 | 38891 ft | 481 kts | 143° |
| 2026-04-22 07:24 | -4.22086 | 9.96595 | 38896 ft | 481 kts | 143° |
| 2026-04-22 07:25 | -4.27555 | 10.00474 | 38890 ft | 481 kts | 143° |
| 2026-04-22 07:25 | -4.33026 | 10.04353 | 38893 ft | 481 kts | 143° |
| 2026-04-22 07:26 | -4.38493 | 10.08232 | 38893 ft | 482 kts | 143° |
| 2026-04-22 07:26 | -4.43940 | 10.12097 | 38892 ft | 482 kts | 143° |
| 2026-04-22 07:27 | -4.49425 | 10.15992 | 38894 ft | 482 kts | 143° |
| 2026-04-22 07:27 | -4.54907 | 10.19885 | 38893 ft | 483 kts | 143° |
| 2026-04-22 07:28 | -4.63097 | 10.25701 | 38900 ft | 483 kts | 143° |
| 2026-04-22 07:28 | -4.68589 | 10.29611 | 38895 ft | 484 kts | 143° |
| 2026-04-22 07:29 | -4.74071 | 10.33530 | 38891 ft | 484 kts | 143° |
| 2026-04-22 07:29 | -4.79554 | 10.37449 | 38891 ft | 484 kts | 143° |
| 2026-04-22 07:30 | -4.85043 | 10.41371 | 38893 ft | 484 kts | 143° |
| 2026-04-22 07:30 | -4.90539 | 10.45284 | 38892 ft | 485 kts | 143° |
| 2026-04-22 07:31 | -4.96044 | 10.49184 | 38895 ft | 484 kts | 143° |
| 2026-04-22 07:31 | -5.01513 | 10.53062 | 38893 ft | 484 kts | 143° |
| 2026-04-22 07:32 | -5.07024 | 10.56974 | 38895 ft | 484 kts | 143° |
| 2026-04-22 07:32 | -5.12536 | 10.60889 | 38897 ft | 484 kts | 143° |
| 2026-04-22 07:33 | -5.18039 | 10.64798 | 38898 ft | 485 kts | 143° |
| 2026-04-22 07:33 | -5.23543 | 10.68709 | 38893 ft | 485 kts | 143° |
| 2026-04-22 07:34 | -5.29049 | 10.72622 | 38893 ft | 485 kts | 143° |
| 2026-04-22 07:34 | -5.34572 | 10.76524 | 38893 ft | 485 kts | 143° |
| 2026-04-22 07:35 | -5.40079 | 10.80385 | 38895 ft | 486 kts | 143° |
| 2026-04-22 07:35 | -5.45631 | 10.84278 | 38893 ft | 486 kts | 143° |
| 2026-04-22 07:36 | -5.51176 | 10.88173 | 38889 ft | 487 kts | 143° |
| 2026-04-22 07:36 | -5.56719 | 10.92071 | 38897 ft | 487 kts | 143° |
| 2026-04-22 07:37 | -5.62271 | 10.95976 | 38890 ft | 487 kts | 143° |
| 2026-04-22 07:37 | -5.67543 | 10.99685 | 38899 ft | 487 kts | 143° |
| 2026-04-22 07:38 | -5.73060 | 11.03566 | 38892 ft | 487 kts | 143° |
| 2026-04-22 07:38 | -5.78617 | 11.07477 | 38904 ft | 487 kts | 143° |
| 2026-04-22 07:39 | -5.84162 | 11.11381 | 38890 ft | 488 kts | 143° |
| 2026-04-22 07:39 | -5.89718 | 11.15293 | 38893 ft | 487 kts | 143° |
| 2026-04-22 07:40 | -5.95260 | 11.19195 | 38892 ft | 486 kts | 143° |
| 2026-04-22 07:40 | -5.99854 | 11.22432 | 38894 ft | 485 kts | 143° |
| 2026-04-22 07:41 | -6.05379 | 11.26325 | 38891 ft | 485 kts | 143° |
| 2026-04-22 07:41 | -6.10920 | 11.30230 | 38899 ft | 485 kts | 143° |
| 2026-04-22 07:42 | -6.16416 | 11.34105 | 38889 ft | 485 kts | 143° |
| 2026-04-22 07:42 | -6.21942 | 11.38002 | 38896 ft | 485 kts | 143° |
| 2026-04-22 07:43 | -6.27460 | 11.41894 | 38898 ft | 484 kts | 143° |
| 2026-04-22 07:43 | -6.32979 | 11.45787 | 38896 ft | 484 kts | 143° |
| 2026-04-22 07:44 | -6.38492 | 11.49678 | 38895 ft | 483 kts | 143° |
| 2026-04-22 07:44 | -6.43965 | 11.53541 | 38891 ft | 483 kts | 143° |
| 2026-04-22 07:45 | -6.49459 | 11.57421 | 38892 ft | 483 kts | 143° |
| 2026-04-22 07:45 | -6.54955 | 11.61303 | 38895 ft | 482 kts | 143° |
| 2026-04-22 07:46 | -6.60437 | 11.65176 | 38896 ft | 481 kts | 143° |
| 2026-04-22 07:46 | -6.65915 | 11.69047 | 38898 ft | 481 kts | 143° |
| 2026-04-22 07:47 | -6.71392 | 11.72919 | 38899 ft | 481 kts | 143° |
| 2026-04-22 07:47 | -6.76843 | 11.76773 | 38893 ft | 481 kts | 143° |
| 2026-04-22 07:48 | -6.82317 | 11.80645 | 38896 ft | 481 kts | 143° |
| 2026-04-22 07:48 | -6.87790 | 11.84517 | 38896 ft | 481 kts | 143° |
| 2026-04-22 07:49 | -6.93275 | 11.88399 | 38896 ft | 481 kts | 143° |
| 2026-04-22 07:49 | -6.98756 | 11.92279 | 38899 ft | 481 kts | 143° |
| 2026-04-22 07:50 | -7.04240 | 11.96163 | 38898 ft | 482 kts | 143° |
| 2026-04-22 07:50 | -7.09723 | 12.00047 | 38893 ft | 482 kts | 143° |
| 2026-04-22 07:51 | -7.15219 | 12.03942 | 38897 ft | 482 kts | 143° |
| 2026-04-22 07:51 | -7.20665 | 12.07818 | 38897 ft | 482 kts | 142° |
| 2026-04-22 07:52 | -7.25865 | 12.12074 | 38899 ft | 481 kts | 138° |
| 2026-04-22 07:52 | -7.30964 | 12.16426 | 38901 ft | 480 kts | 138° |
| 2026-04-22 07:53 | -7.36064 | 12.20772 | 38900 ft | 480 kts | 138° |
| 2026-04-22 07:53 | -7.41145 | 12.25074 | 38899 ft | 479 kts | 138° |
| 2026-04-22 07:54 | -7.46284 | 12.29416 | 38900 ft | 479 kts | 139° |
| 2026-04-22 07:54 | -7.51385 | 12.33726 | 38055 ft | 486 kts | 139° |
| 2026-04-22 07:55 | -7.53971 | 12.35912 | 37273 ft | 483 kts | 139° |
| 2026-04-22 07:55 | -7.56538 | 12.38082 | 36485 ft | 480 kts | 139° |
| 2026-04-22 07:55 | -7.59102 | 12.40250 | 35668 ft | 479 kts | 139° |
| 2026-04-22 07:55 | -7.61668 | 12.42421 | 34705 ft | 482 kts | 138° |
| 2026-04-22 07:56 | -7.64208 | 12.44570 | 33646 ft | 485 kts | 139° |
| 2026-04-22 07:56 | -7.66799 | 12.46764 | 32470 ft | 488 kts | 139° |
| 2026-04-22 07:56 | -7.69400 | 12.48967 | 31356 ft | 489 kts | 140° |
| 2026-04-22 07:56 | -7.72011 | 12.51177 | 30391 ft | 487 kts | 140° |
| 2026-04-22 07:57 | -7.74586 | 12.53358 | 29507 ft | 481 kts | 140° |
| 2026-04-22 07:57 | -7.77140 | 12.55518 | 28619 ft | 476 kts | 140° |
| 2026-04-22 07:57 | -7.79660 | 12.57650 | 27807 ft | 470 kts | 140° |
| 2026-04-22 07:57 | -7.82150 | 12.59758 | 27030 ft | 464 kts | 140° |
| 2026-04-22 07:58 | -7.84615 | 12.61845 | 26256 ft | 460 kts | 139° |
| 2026-04-22 07:58 | -7.87054 | 12.63910 | 25486 ft | 456 kts | 139° |
| 2026-04-22 07:58 | -7.89471 | 12.65958 | 24719 ft | 452 kts | 139° |
| 2026-04-22 07:58 | -7.91878 | 12.67998 | 23967 ft | 449 kts | 139° |
| 2026-04-22 07:59 | -7.94267 | 12.70023 | 23162 ft | 447 kts | 138° |
| 2026-04-22 07:59 | -7.96613 | 12.72013 | 22360 ft | 444 kts | 138° |
| 2026-04-22 07:59 | -7.98993 | 12.74031 | 21633 ft | 439 kts | 138° |
| 2026-04-22 07:59 | -8.01290 | 12.75979 | 20928 ft | 434 kts | 138° |
| 2026-04-22 08:00 | -8.03591 | 12.77931 | 20245 ft | 430 kts | 138° |
| 2026-04-22 08:00 | -8.05869 | 12.79864 | 19575 ft | 426 kts | 138° |
| 2026-04-22 08:00 | -8.08127 | 12.81780 | 18900 ft | 422 kts | 138° |
| 2026-04-22 08:00 | -8.10369 | 12.83681 | 18259 ft | 419 kts | 138° |
| 2026-04-22 08:01 | -8.12595 | 12.85571 | 17531 ft | 416 kts | 138° |
| 2026-04-22 08:01 | -8.14797 | 12.87440 | 16877 ft | 411 kts | 138° |
| 2026-04-22 08:01 | -8.16973 | 12.89287 | 16253 ft | 406 kts | 138° |
| 2026-04-22 08:01 | -8.19123 | 12.91113 | 15650 ft | 402 kts | 138° |
| 2026-04-22 08:02 | -8.21257 | 12.92925 | 15049 ft | 399 kts | 138° |
| 2026-04-22 08:02 | -8.23367 | 12.94718 | 14460 ft | 395 kts | 138° |
| 2026-04-22 08:02 | -8.25465 | 12.96500 | 13854 ft | 393 kts | 138° |
| 2026-04-22 08:02 | -8.27554 | 12.98274 | 13213 ft | 391 kts | 138° |
| 2026-04-22 08:03 | -8.29625 | 13.00034 | 12601 ft | 387 kts | 138° |
| 2026-04-22 08:03 | -8.31681 | 13.01781 | 12023 ft | 384 kts | 138° |
| 2026-04-22 08:03 | -8.33687 | 13.03487 | 11439 ft | 380 kts | 138° |
| 2026-04-22 08:03 | -8.35702 | 13.05199 | 10863 ft | 377 kts | 138° |
| 2026-04-22 08:04 | -8.37701 | 13.06899 | 10285 ft | 374 kts | 138° |
| 2026-04-22 08:04 | -8.39685 | 13.08586 | 9718 ft | 371 kts | 138° |
| 2026-04-22 08:04 | -8.41646 | 13.10254 | 9140 ft | 367 kts | 138° |
| 2026-04-22 08:04 | -8.43596 | 13.11912 | 8575 ft | 363 kts | 138° |
| 2026-04-22 08:05 | -8.45515 | 13.13545 | 8021 ft | 359 kts | 138° |
| 2026-04-22 08:05 | -8.47415 | 13.15160 | 7459 ft | 356 kts | 138° |
| 2026-04-22 08:05 | -8.49303 | 13.16767 | 6896 ft | 352 kts | 138° |
| 2026-04-22 08:05 | -8.51144 | 13.18334 | 6354 ft | 350 kts | 138° |
| 2026-04-22 08:06 | -8.53000 | 13.19914 | 5774 ft | 347 kts | 138° |
| 2026-04-22 08:06 | -8.54841 | 13.21482 | 5214 ft | 344 kts | 138° |
| 2026-04-22 08:06 | -8.56631 | 13.23005 | 5054 ft | 329 kts | 138° |
| 2026-04-22 08:06 | -8.58343 | 13.24461 | 4886 ft | 315 kts | 138° |
| 2026-04-22 08:07 | -8.59988 | 13.25861 | 4744 ft | 302 kts | 138° |
| 2026-04-22 08:07 | -8.61566 | 13.27206 | 4628 ft | 291 kts | 138° |
| 2026-04-22 08:07 | -8.63087 | 13.28502 | 4477 ft | 280 kts | 138° |
| 2026-04-22 08:07 | -8.64550 | 13.29749 | 4372 ft | 271 kts | 138° |
| 2026-04-22 08:08 | -8.65968 | 13.30959 | 4260 ft | 262 kts | 138° |
| 2026-04-22 08:08 | -8.67337 | 13.32126 | 4153 ft | 253 kts | 138° |
| 2026-04-22 08:08 | -8.68660 | 13.33252 | 4039 ft | 245 kts | 138° |
| 2026-04-22 08:08 | -8.69925 | 13.34328 | 3945 ft | 235 kts | 138° |
| 2026-04-22 08:09 | -8.71155 | 13.35368 | 3819 ft | 224 kts | 142° |
| 2026-04-22 08:09 | -8.72559 | 13.35933 | 3624 ft | 218 kts | 176° |
| 2026-04-22 08:09 | -8.73988 | 13.35568 | 3428 ft | 213 kts | 212° |
| 2026-04-22 08:09 | -8.75124 | 13.34656 | 3210 ft | 205 kts | 218° |
| 2026-04-22 08:10 | -8.76173 | 13.33712 | 3085 ft | 196 kts | 223° |
| 2026-04-22 08:10 | -8.77098 | 13.32758 | 2936 ft | 191 kts | 225° |
| 2026-04-22 08:10 | -8.78014 | 13.31773 | 2646 ft | 194 kts | 225° |
| 2026-04-22 08:10 | -8.78927 | 13.30790 | 2317 ft | 186 kts | 225° |
| 2026-04-22 08:11 | -8.79795 | 13.29853 | 1907 ft | 180 kts | 225° |
| 2026-04-22 08:11 | -8.80642 | 13.28943 | 1566 ft | 173 kts | 224° |
| 2026-04-22 08:11 | -8.81416 | 13.28109 | 1372 ft | 151 kts | 224° |
| 2026-04-22 08:11 | -8.82099 | 13.27375 | 1161 ft | 137 kts | 224° |
| 2026-04-22 08:12 | -8.82758 | 13.26667 | 999 ft | 142 kts | 224° |
| 2026-04-22 08:12 | -8.83436 | 13.25940 | 845 ft | 143 kts | 224° |
| 2026-04-22 08:12 | -8.84111 | 13.25209 | 660 ft | 141 kts | 225° |
| 2026-04-22 08:12 | -8.84794 | 13.24479 | 466 ft | 141 kts | 226° |
| 2026-04-22 08:13 | -8.85447 | 13.23771 | 300 ft | 137 kts | 224° |
| 2026-04-22 08:13 | -8.86046 | 13.23132 | 263 ft | 109 kts | 226° |
| 2026-04-22 08:13 | -8.86443 | 13.22712 | 263 ft | 55 kts | 227° |
| 2026-04-22 08:13 | -8.86643 | 13.22497 | 264 ft | 39 kts | 227° |
| 2026-04-22 08:14 | -8.86793 | 13.22336 | 263 ft | 28 kts | 227° |
| 2026-04-22 08:14 | -8.86838 | 13.22238 | 262 ft | 13 kts | 298° |
| 2026-04-22 08:14 | -8.86772 | 13.22221 | 263 ft | 9 kts | 20° |
| 2026-04-22 08:14 | -8.86727 | 13.22264 | 263 ft | 9 kts | 60° |
| 2026-04-22 08:15 | -8.86711 | 13.22325 | 263 ft | 9 kts | 86° |
| 2026-04-22 08:15 | -8.86712 | 13.22388 | 264 ft | 9 kts | 85° |
| 2026-04-22 08:15 | -8.86660 | 13.22479 | 264 ft | 23 kts | 49° |
| 2026-04-22 08:15 | -8.86548 | 13.22603 | 265 ft | 24 kts | 47° |
| 2026-04-22 08:16 | -8.86436 | 13.22726 | 263 ft | 24 kts | 47° |
| 2026-04-22 08:16 | -8.86297 | 13.22876 | 263 ft | 33 kts | 46° |
| 2026-04-22 08:16 | -8.86142 | 13.23044 | 262 ft | 32 kts | 46° |
| 2026-04-22 08:16 | -8.85993 | 13.23198 | 263 ft | 30 kts | 45° |
| 2026-04-22 08:17 | -8.85849 | 13.23350 | 264 ft | 30 kts | 46° |
| 2026-04-22 08:17 | -8.85706 | 13.23503 | 264 ft | 30 kts | 45° |
| 2026-04-22 08:17 | -8.85562 | 13.23657 | 264 ft | 30 kts | 47° |
| 2026-04-22 08:17 | -8.85448 | 13.23779 | 263 ft | 14 kts | 46° |
| 2026-04-22 08:18 | -8.85358 | 13.23783 | 263 ft | 14 kts | 328° |
| 2026-04-22 08:18 | -8.85283 | 13.23716 | 263 ft | 14 kts | 316° |
| 2026-04-22 08:18 | -8.85209 | 13.23647 | 263 ft | 14 kts | 318° |
| 2026-04-22 08:18 | -8.85136 | 13.23583 | 263 ft | 13 kts | 322° |
| 2026-04-22 08:19 | -8.85067 | 13.23559 | 263 ft | 9 kts | 17° |
| 2026-04-22 08:19 | -8.85030 | 13.23611 | 263 ft | 9 kts | 67° |
| 2026-04-22 08:19 | -8.85005 | 13.23672 | 263 ft | 9 kts | 68° |
| 2026-04-22 08:19 | -8.84981 | 13.23733 | 263 ft | 9 kts | 67° |
| 2026-04-22 08:20 | -8.84955 | 13.23794 | 263 ft | 9 kts | 67° |
| 2026-04-22 08:20 | -8.84931 | 13.23855 | 263 ft | 9 kts | 68° |
| 2026-04-22 08:20 | -8.84909 | 13.23911 | 263 ft | 7 kts | 69° |
| 2026-04-22 08:20 | -8.84884 | 13.23943 | 264 ft | 5 kts | 17° |
| 2026-04-22 08:21 | -8.84849 | 13.23925 | 264 ft | 6 kts | 314° |
| 2026-04-22 08:21 | -8.84836 | 13.23909 | 264 ft | 1 kts | 308° |
| 2026-04-22 08:21 | -8.84831 | 13.23903 | 264 ft | 0 kts | 309° |